Observation data for Dozier on 12/13/2019      Previous  Date       Current Mesonet Observations  Soil Data  Daily Summary Page  Observations in Plain Language
KDO1 130600Z 00008KT 03/03 A2997 RMK A01 T00320025  RH  095%=      5-min Rain = 0
KDO1 130601Z 00008KT 03/03 A2997 RMK A01 T00320025  RH  095%=      5-min Rain = 0
KDO1 130602Z 00008KT 03/02 A2997 RMK A01 T00310024  RH  095%=      5-min Rain = 0
KDO1 130603Z 00008KT 03/02 A2997 RMK A01 T00310024  RH  095%=      5-min Rain = 0
KDO1 130604Z 00008KT 03/02 A2997 RMK A01 T00310024  RH  095%=      5-min Rain = 0
KDO1 130605Z 00008KT 03/02 A2997 RMK A01 T00300024  RH  096%=      5-min Rain = 0
KDO1 130606Z 00009KT 03/02 A2997 RMK A01 T00300024  RH  096%=      5-min Rain = 0
KDO1 130607Z 00009KT 03/02 A2997 RMK A01 T00300024  RH  096%=      5-min Rain = 0
KDO1 130608Z 00008KT 03/02 A2997 RMK A01 T00300024  RH  096%=      5-min Rain = 0
KDO1 130609Z 00008KT 03/02 A2997 RMK A01 T00310024  RH  096%=      5-min Rain = 0
KDO1 130610Z 00008KT 03/02 A2997 RMK A01 T00310024  RH  096%=      5-min Rain = 0
KDO1 130611Z 01007KT 03/02 A2997 RMK A01 T00310024  RH  096%=      5-min Rain = 0
KDO1 130612Z 00007KT 03/02 A2997 RMK A01 T00310024  RH  096%=      5-min Rain = 0
KDO1 130613Z 01007KT 03/02 A2997 RMK A01 T00310024  RH  096%=      5-min Rain = 0
KDO1 130614Z 01007KT 03/02 A2997 RMK A01 T00300024  RH  096%=      5-min Rain = 0
KDO1 130615Z 00007KT 03/02 A2997 RMK A01 T00300024  RH  096%=      5-min Rain = 0
KDO1 130616Z 00007KT 03/02 A2997 RMK A01 T00300024  RH  096%=      5-min Rain = 0
KDO1 130617Z 00007KT 03/03 A2997 RMK A01 T00300025  RH  096%=      5-min Rain = 0
KDO1 130618Z 00007KT 03/03 A2997 RMK A01 T00300025  RH  096%=      5-min Rain = 0
KDO1 130619Z 00006KT 03/02 A2997 RMK A01 T00300024  RH  096%=      5-min Rain = 0
KDO1 130620Z 00006KT 03/03 A2997 RMK A01 T00310025  RH  096%=      5-min Rain = 0
KDO1 130621Z 00006KT 03/03 A2997 RMK A01 T00310025  RH  096%=      5-min Rain = 0
KDO1 130622Z 00006KT 03/02 A2997 RMK A01 T00300024  RH  096%=      5-min Rain = 0
KDO1 130623Z 00006KT 03/03 A2997 RMK A01 T00300025  RH  096%=      5-min Rain = 0
KDO1 130624Z 00005KT 03/03 A2996 RMK A01 T00300025  RH  097%=      5-min Rain = 0
KDO1 130625Z 00005KT 03/03 A2996 RMK A01 T00310026  RH  097%=      5-min Rain = 0
KDO1 130626Z 01005KT 03/03 A2996 RMK A01 T00300025  RH  096%=      5-min Rain = 0
KDO1 130627Z 01005KT 03/03 A2996 RMK A01 T00310026  RH  096%=      5-min Rain = 0
KDO1 130628Z 00005KT 03/03 A2996 RMK A01 T00310026  RH  096%=      5-min Rain = 0
KDO1 130629Z 36006KT 03/03 A2996 RMK A01 T00310025  RH  096%=      5-min Rain = 0
KDO1 130630Z 00006KT 03/02 A2996 RMK A01 T00300023  RH  095%=      5-min Rain = 0
KDO1 130631Z 00006KT 03/02 A2996 RMK A01 T00290022  RH  095%=      5-min Rain = 0
KDO1 130632Z 00006KT 03/02 A2996 RMK A01 T00280023  RH  096%=      5-min Rain = 0
KDO1 130633Z 00006KT 03/02 A2996 RMK A01 T00280023  RH  097%=      5-min Rain = 0
KDO1 130634Z 00006KT 03/02 A2996 RMK A01 T00280022  RH  096%=      5-min Rain = 0
KDO1 130635Z 00006KT 03/02 A2996 RMK A01 T00270023  RH  097%=      5-min Rain = 0
KDO1 130636Z 00006KT 03/03 A2996 RMK A01 T00280025  RH  098%=      5-min Rain = 0
KDO1 130637Z 00006KT 03/03 A2996 RMK A01 T00290026  RH  098%=      5-min Rain = 0
KDO1 130638Z 36006KT 03/03 A2996 RMK A01 T00290025  RH  097%=      5-min Rain = 0
KDO1 130639Z 35005KT 03/03 A2996 RMK A01 T00290025  RH  097%=      5-min Rain = 0
KDO1 130640Z 34004KT 03/03 A2996 RMK A01 T00290025  RH  097%=      5-min Rain = 0
KDO1 130641Z 29001KT 03/02 A2996 RMK A01 T00270020  RH  095%=      5-min Rain = 0
KDO1 130642Z 28002KT 02/01 A2996 RMK A01 T00220011  RH  093%=      5-min Rain = 0
KDO1 130643Z 32002KT 02/01 A2996 RMK A01 T00180010  RH  094%=      5-min Rain = 0
KDO1 130644Z 32001KT 02/01 A2996 RMK A01 T00180014  RH  097%=      5-min Rain = 0
KDO1 130645Z 27001KT 02/01 A2996 RMK A01 T00160010  RH  096%=      5-min Rain = 0
KDO1 130646Z 26000KT 01/01 A2996 RMK A01 T00140008  RH  096%=      5-min Rain = 0
KDO1 130647Z 32001KT 01/01 A2996 RMK A01 T00130010  RH  097%=      5-min Rain = 0
KDO1 130648Z 29001KT 01/01 A2996 RMK A01 T00140012  RH  099%=      5-min Rain = 0
KDO1 130649Z 24001KT 01/01 A2996 RMK A01 T00110007  RH  097%=      5-min Rain = 0
KDO1 130650Z 24001KT 01/00 A2996 RMK A01 T00090003  RH  096%=      5-min Rain = 0
KDO1 130651Z 25001KT 01/00 A2996 RMK A01 T00060001  RH  096%=      5-min Rain = 0
KDO1 130652Z 24001KT 00/M00 A2996 RMK A01 T00041002  RH  096%=      5-min Rain = 0
KDO1 130653Z 23002KT 00/M00 A2996 RMK A01 T00011004  RH  096%=      5-min Rain = 0
KDO1 130654Z 23002KT 00/01 A2996 RMK A01 T00-000-5  RH  097%=      5-min Rain = 0
KDO1 130655Z 23003KT M00/M01 A2996 RMK A01 T10011005  RH  098%=      5-min Rain = 0
KDO1 130656Z 24002KT M00/M01 A2996 RMK A01 T10021005  RH  098%=      5-min Rain = 0
KDO1 130657Z 25003KT M00/M00 A2996 RMK A01 T10021004  RH  099%=      5-min Rain = 0
KDO1 130658Z 25002KT M00/M00 A2996 RMK A01 T10021002  RH  100%=      5-min Rain = 0
KDO1 130659Z 25003KT 00/00 A2996 RMK A01 T00-000-1  RH  100%=      5-min Rain = 0
KDO1 130700Z 25003KT 00/00 A2996 RMK A01 T000000-0  RH  100%=      5-min Rain = 0
KDO1 130701Z 25004KT 00/00 A2996 RMK A01 T00000000  RH  100%=      5-min Rain = 0
KDO1 130702Z 25004KT 00/00 A2996 RMK A01 T00000000  RH  100%=      5-min Rain = 0
KDO1 130703Z 25004KT 00/00 A2996 RMK A01 T00010001  RH  100%=      5-min Rain = 0
KDO1 130704Z 25005KT 00/00 A2996 RMK A01 T00020002  RH  100%=      5-min Rain = 0
KDO1 130705Z 25004KT 00/00 A2996 RMK A01 T00030002  RH  100%=      5-min Rain = 0
KDO1 130706Z 26003KT 00/00 A2996 RMK A01 T00030002  RH  100%=      5-min Rain = 0
KDO1 130707Z 27003KT 00/00 A2996 RMK A01 T00030002  RH  100%=      5-min Rain = 0
KDO1 130708Z 28003KT 00/00 A2996 RMK A01 T00020002  RH  100%=      5-min Rain = 0
KDO1 130709Z 28003KT 00/00 A2996 RMK A01 T00030002  RH  100%=      5-min Rain = 0
KDO1 130710Z 29003KT 00/00 A2996 RMK A01 T00040004  RH  100%=      5-min Rain = 0
KDO1 130711Z 28002KT 00/00 A2996 RMK A01 T00040004  RH  100%=      5-min Rain = 0
KDO1 130712Z 28002KT 01/01 A2996 RMK A01 T00050005  RH  100%=      5-min Rain = 0
KDO1 130713Z 29002KT 01/01 A2996 RMK A01 T00070007  RH  100%=      5-min Rain = 0
KDO1 130714Z 30002KT 01/01 A2996 RMK A01 T00080008  RH  100%=      5-min Rain = 0
KDO1 130715Z 31002KT 01/01 A2996 RMK A01 T00090008  RH  100%=      5-min Rain = 0
KDO1 130716Z 31001KT 01/01 A2996 RMK A01 T00090009  RH  100%=      5-min Rain = 0
KDO1 130717Z 33001KT 01/01 A2996 RMK A01 T00090009  RH  100%=      5-min Rain = 0
KDO1 130718Z 00001KT 01/01 A2996 RMK A01 T00090009  RH  100%=      5-min Rain = 0
KDO1 130719Z 02000KT 01/01 A2996 RMK A01 T00090008  RH  100%=      5-min Rain = 0
KDO1 130720Z 33001KT 01/01 A2996 RMK A01 T00080007  RH  100%=      5-min Rain = 0
KDO1 130721Z 33001KT 01/01 A2996 RMK A01 T00060006  RH  100%=      5-min Rain = 0
KDO1 130722Z 34001KT 01/01 A2996 RMK A01 T00050005  RH  100%=      5-min Rain = 0
KDO1 130723Z 35000KT 01/01 A2996 RMK A01 T00050005  RH  100%=      5-min Rain = 0
KDO1 130724Z 01001KT 01/00 A2996 RMK A01 T00050004  RH  100%=      5-min Rain = 0
KDO1 130725Z 02001KT 01/01 A2996 RMK A01 T00050005  RH  100%=      5-min Rain = 0
KDO1 130726Z 02001KT 01/01 A2996 RMK A01 T00060005  RH  100%=      5-min Rain = 0
KDO1 130727Z 03002KT 01/00 A2996 RMK A01 T00050004  RH  100%=      5-min Rain = 0
KDO1 130728Z 03002KT 00/00 A2996 RMK A01 T00040003  RH  100%=      5-min Rain = 0
KDO1 130729Z 03002KT 00/00 A2996 RMK A01 T00020002  RH  100%=      5-min Rain = 0
KDO1 130730Z 02002KT 00/00 A2996 RMK A01 T00010001  RH  100%=      5-min Rain = 0
KDO1 130731Z 03002KT M00/M00 A2996 RMK A01 T10011002  RH  100%=      5-min Rain = 0
KDO1 130732Z 02002KT M00/M01 A2996 RMK A01 T10041005  RH  099%=      5-min Rain = 0
KDO1 130733Z 02002KT M01/M01 A2996 RMK A01 T10071008  RH  099%=      5-min Rain = 0
KDO1 130734Z 35002KT M01/M01 A2996 RMK A01 T10091011  RH  099%=      5-min Rain = 0
KDO1 130735Z 34003KT M01/M01 A2995 RMK A01 T10101011  RH  099%=      5-min Rain = 0
KDO1 130736Z 34003KT M01/M01 A2995 RMK A01 T10101010  RH  100%=      5-min Rain = 0
KDO1 130737Z 33004KT M01/M01 A2995 RMK A01 T10091009  RH  100%=      5-min Rain = 0
KDO1 130738Z 33004KT M01/M01 A2995 RMK A01 T10071007  RH  100%=      5-min Rain = 0
KDO1 130739Z 33004KT M01/M01 A2995 RMK A01 T10051005  RH  100%=      5-min Rain = 0
KDO1 130740Z 33004KT M00/M00 A2995 RMK A01 T10031004  RH  100%=      5-min Rain = 0
KDO1 130741Z 33005KT M00/M00 A2995 RMK A01 T10011001  RH  100%=      5-min Rain = 0
KDO1 130742Z 33005KT 00/00 A2995 RMK A01 T00020001  RH  100%=      5-min Rain = 0
KDO1 130743Z 33005KT 00/00 A2995 RMK A01 T00030002  RH  100%=      5-min Rain = 0
KDO1 130744Z 33004KT M00/M00 A2995 RMK A01 T10011001  RH  100%=      5-min Rain = 0
KDO1 130745Z 33004KT M00/M00 A2995 RMK A01 T10041004  RH  100%=      5-min Rain = 0
KDO1 130746Z 32003KT M01/M01 A2995 RMK A01 T10061006  RH  100%=      5-min Rain = 0
KDO1 130747Z 32003KT M01/M01 A2995 RMK A01 T10061006  RH  100%=      5-min Rain = 0
KDO1 130748Z 31002KT M01/M01 A2995 RMK A01 T10061007  RH  100%=      5-min Rain = 0
KDO1 130749Z 30002KT M01/M01 A2995 RMK A01 T10071007  RH  100%=      5-min Rain = 0
KDO1 130750Z 29002KT M01/M01 A2995 RMK A01 T10071007  RH  100%=      5-min Rain = 0
KDO1 130751Z 28002KT M01/M01 A2995 RMK A01 T10051006  RH  100%=      5-min Rain = 0
KDO1 130752Z 27002KT M00/M00 A2995 RMK A01 T10031003  RH  100%=      5-min Rain = 0
KDO1 130753Z 26001KT M00/M00 A2995 RMK A01 T10021002  RH  100%=      5-min Rain = 0
KDO1 130754Z 27001KT M00/M00 A2995 RMK A01 T10011001  RH  100%=      5-min Rain = 0
KDO1 130755Z 29002KT M00/M00 A2995 RMK A01 T10011001  RH  100%=      5-min Rain = 0
KDO1 130756Z 30002KT 00/00 A2995 RMK A01 T00-000-0  RH  100%=      5-min Rain = 0
KDO1 130757Z 30003KT 00/00 A2995 RMK A01 T00010001  RH  100%=      5-min Rain = 0
KDO1 130758Z 29003KT 00/00 A2995 RMK A01 T00010001  RH  100%=      5-min Rain = 0
KDO1 130759Z 29003KT 00/00 A2995 RMK A01 T00030002  RH  100%=      5-min Rain = 0
KDO1 130800Z 30003KT 00/00 A2995 RMK A01 T00040003  RH  100%=      5-min Rain = 0
KDO1 130801Z 30004KT 00/00 A2995 RMK A01 T00040004  RH  100%=      5-min Rain = 0
KDO1 130802Z 30003KT 01/01 A2995 RMK A01 T00060005  RH  100%=      5-min Rain = 0
KDO1 130803Z 30003KT 01/01 A2995 RMK A01 T00070007  RH  100%=      5-min Rain = 0
KDO1 130804Z 30003KT 01/01 A2996 RMK A01 T00070007  RH  100%=      5-min Rain = 0
KDO1 130805Z 30002KT 01/01 A2996 RMK A01 T00070007  RH  100%=      5-min Rain = 0
KDO1 130806Z 32001KT 01/01 A2996 RMK A01 T00070007  RH  100%=      5-min Rain = 0
KDO1 130807Z 00000KT 01/01 A2996 RMK A01 T00070006  RH  100%=      5-min Rain = 0
KDO1 130808Z 00000KT 01/01 A2995 RMK A01 T00070006  RH  100%=      5-min Rain = 0
KDO1 130809Z 31000KT 01/01 A2995 RMK A01 T00070006  RH  100%=      5-min Rain = 0
KDO1 130810Z 30001KT 01/01 A2995 RMK A01 T00080008  RH  100%=      5-min Rain = 0
KDO1 130811Z 30002KT 01/01 A2995 RMK A01 T00080008  RH  100%=      5-min Rain = 0
KDO1 130812Z 29001KT 01/01 A2995 RMK A01 T00080008  RH  100%=      5-min Rain = 0
KDO1 130813Z 29000KT 01/01 A2995 RMK A01 T00080007  RH  100%=      5-min Rain = 0
KDO1 130814Z 09000KT 00/00 A2995 RMK A01 T00040004  RH  100%=      5-min Rain = 0
KDO1 130815Z 10001KT 00/00 A2995 RMK A01 T00010000  RH  100%=      5-min Rain = 0
KDO1 130816Z 10002KT M00/M00 A2995 RMK A01 T10021002  RH  100%=      5-min Rain = 0
KDO1 130817Z 10002KT M00/M01 A2995 RMK A01 T10041005  RH  100%=      5-min Rain = 0
KDO1 130818Z 10003KT M01/M01 A2995 RMK A01 T10071007  RH  100%=      5-min Rain = 0
KDO1 130819Z 10003KT M01/M01 A2995 RMK A01 T10081009  RH  100%=      5-min Rain = 0
KDO1 130820Z 10003KT M01/M01 A2995 RMK A01 T10101010  RH  100%=      5-min Rain = 0
KDO1 130821Z 10003KT M01/M01 A2994 RMK A01 T10111011  RH  100%=      5-min Rain = 0
KDO1 130822Z 09002KT M01/M01 A2994 RMK A01 T10121012  RH  100%=      5-min Rain = 0
KDO1 130823Z 09002KT M01/M01 A2994 RMK A01 T10121012  RH  100%=      5-min Rain = 0
KDO1 130824Z 09002KT M01/M01 A2994 RMK A01 T10111012  RH  100%=      5-min Rain = 0
KDO1 130825Z 09001KT M01/M01 A2994 RMK A01 T10101011  RH  100%=      5-min Rain = 0
KDO1 130826Z 09001KT M01/M01 A2994 RMK A01 T10091010  RH  100%=      5-min Rain = 0
KDO1 130827Z 08000KT M01/M01 A2994 RMK A01 T10091009  RH  100%=      5-min Rain = 0
KDO1 130828Z 05000KT M01/M01 A2994 RMK A01 T10081009  RH  100%=      5-min Rain = 0
KDO1 130829Z 04001KT M01/M01 A2994 RMK A01 T10081008  RH  100%=      5-min Rain = 0
KDO1 130830Z 05001KT M01/M01 A2994 RMK A01 T10081008  RH  100%=      5-min Rain = 0
KDO1 130831Z 06001KT M01/M01 A2994 RMK A01 T10071007  RH  100%=      5-min Rain = 0
KDO1 130832Z 07000KT M01/M01 A2994 RMK A01 T10061006  RH  100%=      5-min Rain = 0
KDO1 130833Z 07000KT M01/M01 A2994 RMK A01 T10061006  RH  100%=      5-min Rain = 0
KDO1 130834Z 06001KT M01/M01 A2994 RMK A01 T10061006  RH  100%=      5-min Rain = 0
KDO1 130835Z 04002KT M01/M01 A2994 RMK A01 T10071007  RH  100%=      5-min Rain = 0
KDO1 130836Z 03002KT M01/M01 A2994 RMK A01 T10081009  RH  100%=      5-min Rain = 0
KDO1 130837Z 02002KT M01/M01 A2994 RMK A01 T10091009  RH  100%=      5-min Rain = 0
KDO1 130838Z 02001KT M01/M01 A2994 RMK A01 T10101010  RH  100%=      5-min Rain = 0
KDO1 130839Z 01000KT M01/M01 A2994 RMK A01 T10111011  RH  100%=      5-min Rain = 0
KDO1 130840Z 34001KT M01/M01 A2994 RMK A01 T10121012  RH  100%=      5-min Rain = 0
KDO1 130841Z 34002KT M01/M01 A2994 RMK A01 T10111012  RH  100%=      5-min Rain = 0
KDO1 130842Z 33002KT M01/M01 A2994 RMK A01 T10111011  RH  100%=      5-min Rain = 0
KDO1 130843Z 32002KT M01/M01 A2994 RMK A01 T10111011  RH  100%=      5-min Rain = 0
KDO1 130844Z 32002KT M01/M01 A2994 RMK A01 T10101010  RH  100%=      5-min Rain = 0
KDO1 130845Z 31002KT M01/M01 A2994 RMK A01 T10101010  RH  100%=      5-min Rain = 0
KDO1 130846Z 30002KT M01/M01 A2994 RMK A01 T10101010  RH  100%=      5-min Rain = 0
KDO1 130847Z 29002KT M01/M01 A2994 RMK A01 T10101010  RH  100%=      5-min Rain = 0
KDO1 130848Z 29001KT M01/M01 A2994 RMK A01 T10101010  RH  100%=      5-min Rain = 0
KDO1 130849Z 28001KT M01/M01 A2994 RMK A01 T10101010  RH  100%=      5-min Rain = 0
KDO1 130850Z 28001KT M01/M01 A2994 RMK A01 T10101010  RH  100%=      5-min Rain = 0
KDO1 130851Z 27001KT M01/M01 A2994 RMK A01 T10101010  RH  100%=      5-min Rain = 0
KDO1 130852Z 26001KT M01/M01 A2994 RMK A01 T10091009  RH  100%=      5-min Rain = 0
KDO1 130853Z 26002KT M01/M01 A2994 RMK A01 T10081009  RH  100%=      5-min Rain = 0
KDO1 130854Z 25002KT M01/M01 A2994 RMK A01 T10091009  RH  100%=      5-min Rain = 0
KDO1 130855Z 24002KT M01/M01 A2994 RMK A01 T10101010  RH  100%=      5-min Rain = 0
KDO1 130856Z 23003KT M01/M01 A2994 RMK A01 T10101010  RH  100%=      5-min Rain = 0
KDO1 130857Z 23003KT M01/M01 A2994 RMK A01 T10081008  RH  100%=      5-min Rain = 0
KDO1 130858Z 22003KT M01/M01 A2994 RMK A01 T10081008  RH  100%=      5-min Rain = 0
KDO1 130859Z 22003KT M01/M01 A2994 RMK A01 T10081008  RH  100%=      5-min Rain = 0
KDO1 130900Z 22003KT M01/M01 A2994 RMK A01 T10081008  RH  100%=      5-min Rain = 0
KDO1 130901Z 22002KT M01/M01 A2994 RMK A01 T10081008  RH  100%=      5-min Rain = 0
KDO1 130902Z 22002KT M01/M01 A2994 RMK A01 T10091009  RH  100%=      5-min Rain = 0
KDO1 130903Z 22001KT M01/M01 A2994 RMK A01 T10091010  RH  100%=      5-min Rain = 0
KDO1 130904Z 21002KT M01/M01 A2994 RMK A01 T10101010  RH  100%=      5-min Rain = 0
KDO1 130905Z 22001KT M01/M01 A2994 RMK A01 T10101010  RH  100%=      5-min Rain = 0
KDO1 130906Z 23001KT M01/M01 A2994 RMK A01 T10101010  RH  100%=      5-min Rain = 0
KDO1 130907Z 23002KT M01/M01 A2994 RMK A01 T10081008  RH  100%=      5-min Rain = 0
KDO1 130908Z 23002KT M01/M01 A2994 RMK A01 T10071008  RH  100%=      5-min Rain = 0
KDO1 130909Z 23002KT M01/M01 A2994 RMK A01 T10071007  RH  100%=      5-min Rain = 0
KDO1 130910Z 23002KT M01/M01 A2994 RMK A01 T10071008  RH  100%=      5-min Rain = 0
KDO1 130911Z 25002KT M01/M01 A2994 RMK A01 T10071008  RH  100%=      5-min Rain = 0
KDO1 130912Z 26003KT M01/M01 A2994 RMK A01 T10071007  RH  100%=      5-min Rain = 0
KDO1 130913Z 27003KT M01/M01 A2994 RMK A01 T10071008  RH  100%=      5-min Rain = 0
KDO1 130914Z 28003KT M01/M01 A2994 RMK A01 T10071007  RH  100%=      5-min Rain = 0
KDO1 130915Z 29003KT M01/M01 A2994 RMK A01 T10071007  RH  100%=      5-min Rain = 0
KDO1 130916Z 30003KT M01/M01 A2994 RMK A01 T10071007  RH  100%=      5-min Rain = 0
KDO1 130917Z 30003KT M01/M01 A2993 RMK A01 T10061007  RH  100%=      5-min Rain = 0
KDO1 130918Z 31001KT M01/M01 A2993 RMK A01 T10061006  RH  100%=      5-min Rain = 0
KDO1 130919Z 35000KT M01/M01 A2993 RMK A01 T10081008  RH  100%=      5-min Rain = 0
KDO1 130920Z 32002KT M01/M01 A2993 RMK A01 T10081008  RH  100%=      5-min Rain = 0
KDO1 130921Z 31002KT M01/M01 A2993 RMK A01 T10071007  RH  100%=      5-min Rain = 0
KDO1 130922Z 30003KT M01/M01 A2993 RMK A01 T10061006  RH  100%=      5-min Rain = 0
KDO1 130923Z 31002KT M01/M01 A2993 RMK A01 T10061006  RH  100%=      5-min Rain = 0
KDO1 130924Z 00001KT M01/M01 A2993 RMK A01 T10061006  RH  100%=      5-min Rain = 0
KDO1 130925Z 02002KT M01/M01 A2993 RMK A01 T10061007  RH  100%=      5-min Rain = 0
KDO1 130926Z 04003KT M01/M01 A2993 RMK A01 T10061007  RH  100%=      5-min Rain = 0
KDO1 130927Z 04002KT M01/M01 A2993 RMK A01 T10071007  RH  100%=      5-min Rain = 0
KDO1 130928Z 04002KT M01/M01 A2993 RMK A01 T10081008  RH  100%=      5-min Rain = 0
KDO1 130929Z 04001KT M01/M01 A2993 RMK A01 T10081009  RH  100%=      5-min Rain = 0
KDO1 130930Z 03001KT M01/M01 A2993 RMK A01 T10081009  RH  100%=      5-min Rain = 0
KDO1 130931Z 35001KT M01/M01 A2993 RMK A01 T10081009  RH  100%=      5-min Rain = 0
KDO1 130932Z 34001KT M01/M01 A2993 RMK A01 T10081009  RH  100%=      5-min Rain = 0
KDO1 130933Z 34001KT M01/M01 A2993 RMK A01 T10091010  RH  100%=      5-min Rain = 0
KDO1 130934Z 34001KT M01/M01 A2993 RMK A01 T10111012  RH  100%=      5-min Rain = 0
KDO1 130935Z 34001KT M01/M01 A2993 RMK A01 T10131013  RH  100%=      5-min Rain = 0
KDO1 130936Z 36001KT M01/M01 A2993 RMK A01 T10141014  RH  100%=      5-min Rain = 0
KDO1 130937Z 03002KT M01/M01 A2993 RMK A01 T10141014  RH  100%=      5-min Rain = 0
KDO1 130938Z 03003KT M01/M01 A2993 RMK A01 T10141014  RH  100%=      5-min Rain = 0
KDO1 130939Z 04003KT M01/M01 A2993 RMK A01 T10121013  RH  100%=      5-min Rain = 0
KDO1 130940Z 05003KT M01/M01 A2993 RMK A01 T10121012  RH  100%=      5-min Rain = 0
KDO1 130941Z 04003KT M01/M01 A2993 RMK A01 T10101011  RH  100%=      5-min Rain = 0
KDO1 130942Z 03003KT M01/M01 A2993 RMK A01 T10091009  RH  100%=      5-min Rain = 0
KDO1 130943Z 03002KT M01/M01 A2993 RMK A01 T10081008  RH  100%=      5-min Rain = 0
KDO1 130944Z 03003KT M01/M01 A2993 RMK A01 T10081008  RH  100%=      5-min Rain = 0
KDO1 130945Z 03003KT M01/M01 A2992 RMK A01 T10071008  RH  100%=      5-min Rain = 0
KDO1 130946Z 03004KT M01/M01 A2992 RMK A01 T10071008  RH  100%=      5-min Rain = 0
KDO1 130947Z 02005KT M01/M01 A2992 RMK A01 T10091009  RH  100%=      5-min Rain = 0
KDO1 130948Z 02004KT M01/M01 A2992 RMK A01 T10091009  RH  100%=      5-min Rain = 0
KDO1 130949Z 02003KT M01/M01 A2992 RMK A01 T10091010  RH  100%=      5-min Rain = 0
KDO1 130950Z 01004KT M01/M01 A2992 RMK A01 T10091009  RH  100%=      5-min Rain = 0
KDO1 130951Z 00005KT M01/M01 A2992 RMK A01 T10101010  RH  100%=      5-min Rain = 0
KDO1 130952Z 00004KT M01/M01 A2992 RMK A01 T10111011  RH  100%=      5-min Rain = 0
KDO1 130953Z 36003KT M01/M01 A2992 RMK A01 T10121012  RH  100%=      5-min Rain = 0
KDO1 130954Z 35002KT M01/M01 A2992 RMK A01 T10121012  RH  100%=      5-min Rain = 0
KDO1 130955Z 34001KT M01/M01 A2992 RMK A01 T10131013  RH  100%=      5-min Rain = 0
KDO1 130956Z 33002KT M01/M01 A2992 RMK A01 T10141014  RH  100%=      5-min Rain = 0
KDO1 130957Z 33003KT M02/M02 A2992 RMK A01 T10151015  RH  100%=      5-min Rain = 0
KDO1 130958Z 33003KT M02/M02 A2992 RMK A01 T10171017  RH  100%=      5-min Rain = 0
KDO1 130959Z 33004KT M02/M02 A2992 RMK A01 T10181018  RH  100%=      5-min Rain = 0
KDO1 131000Z 33003KT M02/M02 A2991 RMK A01 T10191020  RH  100%=      5-min Rain = 0
KDO1 131001Z 33003KT M02/M02 A2991 RMK A01 T10201020  RH  100%=      5-min Rain = 0
KDO1 131002Z 34003KT M02/M02 A2991 RMK A01 T10201020  RH  100%=      5-min Rain = 0
KDO1 131003Z 36003KT M02/M02 A2991 RMK A01 T10201020  RH  100%=      5-min Rain = 0
KDO1 131004Z 35004KT M02/M02 A2991 RMK A01 T10191019  RH  100%=      5-min Rain = 0
KDO1 131005Z 33003KT M02/M02 A2991 RMK A01 T10191020  RH  100%=      5-min Rain = 0
KDO1 131006Z 31003KT M02/M02 A2991 RMK A01 T10191019  RH  100%=      5-min Rain = 0
KDO1 131007Z 32003KT M02/M02 A2991 RMK A01 T10191019  RH  100%=      5-min Rain = 0
KDO1 131008Z 34003KT M02/M02 A2991 RMK A01 T10191019  RH  100%=      5-min Rain = 0
KDO1 131009Z 00002KT M02/M02 A2992 RMK A01 T10181019  RH  100%=      5-min Rain = 0
KDO1 131010Z 00003KT M02/M02 A2992 RMK A01 T10181018  RH  100%=      5-min Rain = 0
KDO1 131011Z 34003KT M02/M02 A2992 RMK A01 T10171017  RH  100%=      5-min Rain = 0
KDO1 131012Z 34003KT M01/M01 A2992 RMK A01 T10141014  RH  100%=      5-min Rain = 0
KDO1 131013Z 32003KT M01/M01 A2992 RMK A01 T10131013  RH  100%=      5-min Rain = 0
KDO1 131014Z 31003KT M01/M01 A2991 RMK A01 T10121012  RH  100%=      5-min Rain = 0
KDO1 131015Z 29003KT M01/M01 A2991 RMK A01 T10101011  RH  100%=      5-min Rain = 0
KDO1 131016Z 29003KT M01/M01 A2991 RMK A01 T10091010  RH  100%=      5-min Rain = 0
KDO1 131017Z 28003KT M01/M01 A2991 RMK A01 T10101010  RH  100%=      5-min Rain = 0
KDO1 131018Z 29003KT M01/M01 A2991 RMK A01 T10121012  RH  100%=      5-min Rain = 0
KDO1 131019Z 29003KT M01/M01 A2992 RMK A01 T10141014  RH  100%=      5-min Rain = 0
KDO1 131020Z 29002KT M01/M01 A2992 RMK A01 T10141014  RH  100%=      5-min Rain = 0
KDO1 131021Z 30002KT M02/M02 A2992 RMK A01 T10151015  RH  100%=      5-min Rain = 0
KDO1 131022Z 31001KT M01/M02 A2992 RMK A01 T10141015  RH  100%=      5-min Rain = 0
KDO1 131023Z 33001KT M01/M01 A2992 RMK A01 T10131013  RH  100%=      5-min Rain = 0
KDO1 131024Z 32001KT M01/M01 A2992 RMK A01 T10121012  RH  100%=      5-min Rain = 0
KDO1 131025Z 31000KT M01/M01 A2992 RMK A01 T10111011  RH  100%=      5-min Rain = 0
KDO1 131026Z 31000KT M01/M01 A2992 RMK A01 T10091009  RH  100%=      5-min Rain = 0
KDO1 131027Z 29001KT M01/M01 A2992 RMK A01 T10071008  RH  100%=      5-min Rain = 0
KDO1 131028Z 28002KT M01/M01 A2992 RMK A01 T10071007  RH  100%=      5-min Rain = 0
KDO1 131029Z 28002KT M01/M01 A2992 RMK A01 T10051006  RH  100%=      5-min Rain = 0
KDO1 131030Z 29003KT M00/M00 A2992 RMK A01 T10031003  RH  100%=      5-min Rain = 0
KDO1 131031Z 30003KT M00/M00 A2992 RMK A01 T10011001  RH  100%=      5-min Rain = 0
KDO1 131032Z 30000KT 00/00 A2992 RMK A01 T00-000-0  RH  100%=      5-min Rain = 0
KDO1 131033Z 08001KT 00/00 A2992 RMK A01 T00-000-1  RH  100%=      5-min Rain = 0
KDO1 131034Z 08002KT M00/M00 A2992 RMK A01 T10031003  RH  100%=      5-min Rain = 0
KDO1 131035Z 08002KT M01/M01 A2992 RMK A01 T10061006  RH  100%=      5-min Rain = 0
KDO1 131036Z 05001KT M01/M01 A2992 RMK A01 T10071008  RH  100%=      5-min Rain = 0
KDO1 131037Z 07000KT M01/M01 A2992 RMK A01 T10091009  RH  100%=      5-min Rain = 0
KDO1 131038Z 08001KT M01/M01 A2992 RMK A01 T10131013  RH  100%=      5-min Rain = 0
KDO1 131039Z 06000KT M02/M02 A2992 RMK A01 T10161016  RH  100%=      5-min Rain = 0
KDO1 131040Z 29002KT M02/M02 A2992 RMK A01 T10171018  RH  100%=      5-min Rain = 0
KDO1 131041Z 28003KT M02/M02 A2992 RMK A01 T10171017  RH  100%=      5-min Rain = 0
KDO1 131042Z 28003KT M02/M02 A2992 RMK A01 T10151015  RH  100%=      5-min Rain = 0
KDO1 131043Z 28003KT M01/M01 A2992 RMK A01 T10111012  RH  100%=      5-min Rain = 0
KDO1 131044Z 28003KT M01/M01 A2992 RMK A01 T10091009  RH  100%=      5-min Rain = 0
KDO1 131045Z 29003KT M01/M01 A2991 RMK A01 T10071007  RH  100%=      5-min Rain = 0
KDO1 131046Z 29003KT M01/M01 A2991 RMK A01 T10061006  RH  100%=      5-min Rain = 0
KDO1 131047Z 29003KT M01/M01 A2992 RMK A01 T10061006  RH  100%=      5-min Rain = 0
KDO1 131048Z 29002KT M01/M01 A2992 RMK A01 T10071008  RH  100%=      5-min Rain = 0
KDO1 131049Z 27000KT M01/M01 A2992 RMK A01 T10091010  RH  100%=      5-min Rain = 0
KDO1 131050Z 12000KT M01/M01 A2992 RMK A01 T10111012  RH  100%=      5-min Rain = 0
KDO1 131051Z 00000KT M02/M02 A2992 RMK A01 T10151015  RH  100%=      5-min Rain = 0
KDO1 131052Z 00000KT M02/M02 A2992 RMK A01 T10201020  RH  100%=      5-min Rain = 0
KDO1 131053Z 21000KT M02/M02 A2992 RMK A01 T10221022  RH  100%=      5-min Rain = 0
KDO1 131054Z 22002KT M02/M02 A2992 RMK A01 T10231023  RH  100%=      5-min Rain = 0
KDO1 131055Z 25002KT M02/M02 A2991 RMK A01 T10241024  RH  100%=      5-min Rain = 0
KDO1 131056Z 24002KT M03/M03 A2991 RMK A01 T10251026  RH  100%=      5-min Rain = 0
KDO1 131057Z 24003KT M03/M03 A2991 RMK A01 T10261026  RH  100%=      5-min Rain = 0
KDO1 131058Z 24003KT M03/M03 A2991 RMK A01 T10261026  RH  100%=      5-min Rain = 0
KDO1 131059Z 24003KT M03/M03 A2991 RMK A01 T10251026  RH  100%=      5-min Rain = 0
KDO1 131100Z 22002KT M03/M03 A2991 RMK A01 T10251025  RH  100%=      5-min Rain = 0
KDO1 131101Z 21002KT M03/M03 A2991 RMK A01 T10251025  RH  100%=      5-min Rain = 0
KDO1 131102Z 22002KT M03/M03 A2991 RMK A01 T10251025  RH  100%=      5-min Rain = 0
KDO1 131103Z 21002KT M03/M03 A2991 RMK A01 T10251025  RH  100%=      5-min Rain = 0
KDO1 131104Z 21001KT M03/M03 A2991 RMK A01 T10251025  RH  100%=      5-min Rain = 0
KDO1 131105Z 21001KT M03/M03 A2991 RMK A01 T10251025  RH  100%=      5-min Rain = 0
KDO1 131106Z 23002KT M03/M03 A2991 RMK A01 T10251025  RH  100%=      5-min Rain = 0
KDO1 131107Z 26002KT M03/M03 A2991 RMK A01 T10251025  RH  100%=      5-min Rain = 0
KDO1 131108Z 27003KT M02/M02 A2991 RMK A01 T10241024  RH  100%=      5-min Rain = 0
KDO1 131109Z 27003KT M02/M02 A2991 RMK A01 T10211021  RH  100%=      5-min Rain = 0
KDO1 131110Z 28004KT M02/M02 A2991 RMK A01 T10181019  RH  100%=      5-min Rain = 0
KDO1 131111Z 29003KT M02/M02 A2991 RMK A01 T10171017  RH  100%=      5-min Rain = 0
KDO1 131112Z 30003KT M02/M02 A2991 RMK A01 T10161016  RH  100%=      5-min Rain = 0
KDO1 131113Z 31001KT M02/M02 A2991 RMK A01 T10171017  RH  100%=      5-min Rain = 0
KDO1 131114Z 33000KT M02/M02 A2991 RMK A01 T10191019  RH  100%=      5-min Rain = 0
KDO1 131115Z 34000KT M02/M02 A2991 RMK A01 T10201021  RH  100%=      5-min Rain = 0
KDO1 131116Z 33000KT M02/M02 A2991 RMK A01 T10211021  RH  100%=      5-min Rain = 0
KDO1 131117Z 32001KT M02/M02 A2991 RMK A01 T10221022  RH  100%=      5-min Rain = 0
KDO1 131118Z 32001KT M02/M02 A2991 RMK A01 T10221022  RH  100%=      5-min Rain = 0
KDO1 131119Z 33001KT M02/M02 A2991 RMK A01 T10221022  RH  100%=      5-min Rain = 0
KDO1 131120Z 32001KT M02/M02 A2991 RMK A01 T10211021  RH  100%=      5-min Rain = 0
KDO1 131121Z 31001KT M02/M02 A2991 RMK A01 T10211021  RH  100%=      5-min Rain = 0
KDO1 131122Z 30001KT M02/M02 A2991 RMK A01 T10211021  RH  100%=      5-min Rain = 0
KDO1 131123Z 31002KT M02/M02 A2991 RMK A01 T10211021  RH  100%=      5-min Rain = 0
KDO1 131124Z 32002KT M02/M02 A2991 RMK A01 T10211021  RH  100%=      5-min Rain = 0
KDO1 131125Z 33001KT M02/M02 A2991 RMK A01 T10211021  RH  100%=      5-min Rain = 0
KDO1 131126Z 02001KT M02/M02 A2991 RMK A01 T10211021  RH  100%=      5-min Rain = 0
KDO1 131127Z 03001KT M02/M02 A2991 RMK A01 T10201021  RH  100%=      5-min Rain = 0
KDO1 131128Z 04002KT M02/M02 A2991 RMK A01 T10201020  RH  100%=      5-min Rain = 0
KDO1 131129Z 03002KT M02/M02 A2991 RMK A01 T10191020  RH  100%=      5-min Rain = 0
KDO1 131130Z 03002KT M02/M02 A2991 RMK A01 T10191019  RH  100%=      5-min Rain = 0
KDO1 131131Z 04001KT M02/M02 A2991 RMK A01 T10181018  RH  100%=      5-min Rain = 0
KDO1 131132Z 03001KT M02/M02 A2991 RMK A01 T10181018  RH  100%=      5-min Rain = 0
KDO1 131133Z 00001KT M02/M02 A2991 RMK A01 T10171017  RH  100%=      5-min Rain = 0
KDO1 131134Z 35002KT M02/M02 A2991 RMK A01 T10171017  RH  100%=      5-min Rain = 0
KDO1 131135Z 35002KT M02/M02 A2991 RMK A01 T10171017  RH  100%=      5-min Rain = 0
KDO1 131136Z 35002KT M02/M02 A2991 RMK A01 T10191019  RH  100%=      5-min Rain = 0
KDO1 131137Z 35002KT M02/M02 A2991 RMK A01 T10191020  RH  100%=      5-min Rain = 0
KDO1 131138Z 35001KT M02/M02 A2991 RMK A01 T10201020  RH  100%=      5-min Rain = 0
KDO1 131139Z 35002KT M02/M02 A2991 RMK A01 T10201020  RH  100%=      5-min Rain = 0
KDO1 131140Z 00001KT M02/M02 A2991 RMK A01 T10191020  RH  100%=      5-min Rain = 0
KDO1 131141Z 00001KT M02/M02 A2991 RMK A01 T10191019  RH  100%=      5-min Rain = 0
KDO1 131142Z 35002KT M02/M02 A2991 RMK A01 T10191019  RH  100%=      5-min Rain = 0
KDO1 131143Z 35001KT M02/M02 A2991 RMK A01 T10191019  RH  100%=      5-min Rain = 0
KDO1 131144Z 35001KT M02/M02 A2991 RMK A01 T10181018  RH  100%=      5-min Rain = 0
KDO1 131145Z 35000KT M02/M02 A2991 RMK A01 T10181018  RH  100%=      5-min Rain = 0
KDO1 131146Z 35000KT M02/M02 A2991 RMK A01 T10171017  RH  100%=      5-min Rain = 0
KDO1 131147Z 00000KT M02/M02 A2991 RMK A01 T10161016  RH  100%=      5-min Rain = 0
KDO1 131148Z 00000KT M02/M02 A2991 RMK A01 T10151015  RH  100%=      5-min Rain = 0
KDO1 131149Z 00000KT M01/M01 A2991 RMK A01 T10131013  RH  100%=      5-min Rain = 0
KDO1 131150Z 00000KT M01/M01 A2991 RMK A01 T10121013  RH  100%=      5-min Rain = 0
KDO1 131151Z 00000KT M01/M01 A2991 RMK A01 T10121012  RH  100%=      5-min Rain = 0
KDO1 131152Z 00000KT M01/M01 A2991 RMK A01 T10121012  RH  100%=      5-min Rain = 0
KDO1 131153Z 21000KT M01/M01 A2991 RMK A01 T10121012  RH  100%=      5-min Rain = 0
KDO1 131154Z 21002KT M01/M01 A2991 RMK A01 T10111012  RH  100%=      5-min Rain = 0
KDO1 131155Z 21002KT M01/M01 A2991 RMK A01 T10111011  RH  100%=      5-min Rain = 0
KDO1 131156Z 22002KT M02/M02 A2991 RMK A01 T10151016  RH  100%=      5-min Rain = 0
KDO1 131157Z 22002KT M02/M02 A2991 RMK A01 T10201020  RH  100%=      5-min Rain = 0
KDO1 131158Z 23002KT M02/M02 A2991 RMK A01 T10241024  RH  100%=      5-min Rain = 0
KDO1 131159Z 25002KT M03/M03 A2991 RMK A01 T10261026  RH  100%=      5-min Rain = 0
KDO1 131200Z 26002KT M03/M03 A2991 RMK A01 T10271028  RH  100%=      5-min Rain = 0
KDO1 131201Z 27001KT M03/M03 A2991 RMK A01 T10281028  RH  100%=      5-min Rain = 0
KDO1 131202Z 28002KT M03/M03 A2991 RMK A01 T10291029  RH  100%=      5-min Rain = 0
KDO1 131203Z 27002KT M03/M03 A2991 RMK A01 T10291029  RH  100%=      5-min Rain = 0
KDO1 131204Z 27002KT M03/M03 A2991 RMK A01 T10281028  RH  100%=      5-min Rain = 0
KDO1 131205Z 27001KT M03/M03 A2991 RMK A01 T10261026  RH  100%=      5-min Rain = 0
KDO1 131206Z 29002KT M02/M03 A2991 RMK A01 T10241025  RH  100%=      5-min Rain = 0
KDO1 131207Z 30003KT M02/M02 A2991 RMK A01 T10221022  RH  100%=      5-min Rain = 0
KDO1 131208Z 30003KT M02/M02 A2991 RMK A01 T10191019  RH  100%=      5-min Rain = 0
KDO1 131209Z 30003KT M02/M02 A2991 RMK A01 T10171017  RH  100%=      5-min Rain = 0
KDO1 131210Z 30004KT M02/M02 A2991 RMK A01 T10151015  RH  100%=      5-min Rain = 0
KDO1 131211Z 29004KT M01/M01 A2991 RMK A01 T10131013  RH  100%=      5-min Rain = 0
KDO1 131212Z 29004KT M01/M01 A2991 RMK A01 T10121012  RH  100%=      5-min Rain = 0
KDO1 131213Z 30003KT M01/M01 A2991 RMK A01 T10101010  RH  100%=      5-min Rain = 0
KDO1 131214Z 30002KT M01/M01 A2991 RMK A01 T10091009  RH  100%=      5-min Rain = 0
KDO1 131215Z 32000KT M01/M01 A2991 RMK A01 T10081008  RH  100%=      5-min Rain = 0
KDO1 131216Z 09001KT M01/M01 A2991 RMK A01 T10081008  RH  100%=      5-min Rain = 0
KDO1 131217Z 11002KT M01/M01 A2991 RMK A01 T10111012  RH  100%=      5-min Rain = 0
KDO1 131218Z 13002KT M02/M02 A2991 RMK A01 T10161016  RH  100%=      5-min Rain = 0
KDO1 131219Z 13001KT M02/M02 A2991 RMK A01 T10191019  RH  100%=      5-min Rain = 0
KDO1 131220Z 00000KT M02/M02 A2991 RMK A01 T10201020  RH  100%=      5-min Rain = 0
KDO1 131221Z 22000KT M02/M02 A2991 RMK A01 T10221022  RH  100%=      5-min Rain = 0
KDO1 131222Z 10001KT M02/M02 A2991 RMK A01 T10221022  RH  100%=      5-min Rain = 0
KDO1 131223Z 11001KT M02/M02 A2991 RMK A01 T10241024  RH  100%=      5-min Rain = 0
KDO1 131224Z 15002KT M03/M03 A2991 RMK A01 T10261027  RH  100%=      5-min Rain = 0
KDO1 131225Z 15002KT M03/M03 A2991 RMK A01 T10281028  RH  100%=      5-min Rain = 0
KDO1 131226Z 14002KT M03/M03 A2991 RMK A01 T10281029  RH  100%=      5-min Rain = 0
KDO1 131227Z 13001KT M03/M03 A2991 RMK A01 T10281028  RH  100%=      5-min Rain = 0
KDO1 131228Z 13001KT M03/M03 A2991 RMK A01 T10281029  RH  100%=      5-min Rain = 0
KDO1 131229Z 12001KT M03/M03 A2991 RMK A01 T10281029  RH  100%=      5-min Rain = 0
KDO1 131230Z 11001KT M03/M03 A2991 RMK A01 T10291029  RH  100%=      5-min Rain = 0
KDO1 131231Z 09001KT M03/M03 A2991 RMK A01 T10291029  RH  100%=      5-min Rain = 0
KDO1 131232Z 09001KT M03/M03 A2991 RMK A01 T10291029  RH  100%=      5-min Rain = 0
KDO1 131233Z 08002KT M03/M03 A2991 RMK A01 T10291029  RH  100%=      5-min Rain = 0
KDO1 131234Z 08002KT M03/M03 A2991 RMK A01 T10281028  RH  100%=      5-min Rain = 0
KDO1 131235Z 08001KT M03/M03 A2991 RMK A01 T10271028  RH  100%=      5-min Rain = 0
KDO1 131236Z 07001KT M03/M03 A2991 RMK A01 T10261027  RH  100%=      5-min Rain = 0
KDO1 131237Z 06001KT M03/M03 A2991 RMK A01 T10261026  RH  100%=      5-min Rain = 0
KDO1 131238Z 05001KT M03/M03 A2991 RMK A01 T10251025  RH  100%=      5-min Rain = 0
KDO1 131239Z 05002KT M03/M03 A2991 RMK A01 T10251025  RH  100%=      5-min Rain = 0
KDO1 131240Z 04002KT M02/M02 A2991 RMK A01 T10241024  RH  100%=      5-min Rain = 0
KDO1 131241Z 04001KT M02/M02 A2991 RMK A01 T10241024  RH  100%=      5-min Rain = 0
KDO1 131242Z 06001KT M02/M02 A2991 RMK A01 T10241024  RH  100%=      5-min Rain = 0
KDO1 131243Z 08001KT M02/M02 A2991 RMK A01 T10241024  RH  100%=      5-min Rain = 0
KDO1 131244Z 08001KT M02/M02 A2991 RMK A01 T10241024  RH  100%=      5-min Rain = 0
KDO1 131245Z 09001KT M02/M02 A2991 RMK A01 T10221023  RH  100%=      5-min Rain = 0
KDO1 131246Z 10002KT M02/M02 A2991 RMK A01 T10201021  RH  100%=      5-min Rain = 0
KDO1 131247Z 09002KT M02/M02 A2991 RMK A01 T10181018  RH  100%=      5-min Rain = 0
KDO1 131248Z 09002KT M02/M02 A2991 RMK A01 T10171017  RH  100%=      5-min Rain = 0
KDO1 131249Z 08002KT M02/M02 A2991 RMK A01 T10161017  RH  100%=      5-min Rain = 0
KDO1 131250Z 08002KT M02/M02 A2991 RMK A01 T10161016  RH  100%=      5-min Rain = 0
KDO1 131251Z 07002KT M02/M02 A2991 RMK A01 T10171017  RH  100%=      5-min Rain = 0
KDO1 131252Z 06001KT M02/M02 A2991 RMK A01 T10171017  RH  100%=      5-min Rain = 0
KDO1 131253Z 05001KT M02/M02 A2991 RMK A01 T10161017  RH  100%=      5-min Rain = 0
KDO1 131254Z 04001KT M02/M02 A2991 RMK A01 T10171017  RH  100%=      5-min Rain = 0
KDO1 131255Z 04001KT M02/M02 A2991 RMK A01 T10161017  RH  100%=      5-min Rain = 0
KDO1 131256Z 03001KT M02/M02 A2991 RMK A01 T10171017  RH  100%=      5-min Rain = 0
KDO1 131257Z 02001KT M02/M02 A2991 RMK A01 T10161016  RH  100%=      5-min Rain = 0
KDO1 131258Z 03000KT M02/M02 A2991 RMK A01 T10161016  RH  100%=      5-min Rain = 0
KDO1 131259Z 17002KT M02/M02 A2991 RMK A01 T10161016  RH  100%=      5-min Rain = 0
KDO1 131300Z 18004KT M02/M02 A2991 RMK A01 T10171017  RH  100%=      5-min Rain = 0
KDO1 131301Z 18003KT M02/M02 A2991 RMK A01 T10211021  RH  100%=      5-min Rain = 0
KDO1 131302Z 18002KT M02/M02 A299 RMK A01 T10231023  RH  100%=      5-min Rain = 0
KDO1 131303Z 19003KT M02/M02 A299 RMK A01 T10241024  RH  100%=      5-min Rain = 0
KDO1 131304Z 20004KT M03/M03 A2991 RMK A01 T10261026  RH  100%=      5-min Rain = 0
KDO1 131305Z 21003KT M03/M03 A2991 RMK A01 T10281028  RH  100%=      5-min Rain = 0
KDO1 131306Z 21004KT M03/M03 A2991 RMK A01 T10311031  RH  100%=      5-min Rain = 0
KDO1 131307Z 21005KT M03/M03 A2991 RMK A01 T10331033  RH  100%=      5-min Rain = 0
KDO1 131308Z 22005KT M04/M04 A2991 RMK A01 T10351035  RH  100%=      5-min Rain = 0
KDO1 131309Z 23004KT M04/M04 A2991 RMK A01 T10351036  RH  100%=      5-min Rain = 0
KDO1 131310Z 23005KT M04/M04 A2991 RMK A01 T10351035  RH  100%=      5-min Rain = 0
KDO1 131311Z 23006KT M04/M04 A2991 RMK A01 T10361036  RH  100%=      5-min Rain = 0
KDO1 131312Z 24006KT M04/M04 A2991 RMK A01 T10381038  RH  100%=      5-min Rain = 0
KDO1 131313Z 24006KT M04/M04 A2991 RMK A01 T10381038  RH  100%=      5-min Rain = 0
KDO1 131314Z 24007KT M04/M04 A2991 RMK A01 T10381038  RH  100%=      5-min Rain = 0
KDO1 131315Z 24007KT M04/M04 A2991 RMK A01 T10371037  RH  100%=      5-min Rain = 0
KDO1 131316Z 24007KT M04/M04 A2991 RMK A01 T10361036  RH  100%=      5-min Rain = 0
KDO1 131317Z 24007KT M03/M04 A2991 RMK A01 T10341035  RH  100%=      5-min Rain = 0
KDO1 131318Z 24007KT M03/M03 A2991 RMK A01 T10341034  RH  100%=      5-min Rain = 0
KDO1 131319Z 25006KT M03/M03 A2991 RMK A01 T10311031  RH  100%=      5-min Rain = 0
KDO1 131320Z 26006KT M03/M03 A2991 RMK A01 T10271027  RH  100%=      5-min Rain = 0
KDO1 131321Z 27005KT M02/M02 A2991 RMK A01 T10241024  RH  100%=      5-min Rain = 0
KDO1 131322Z 27005KT M02/M02 A2991 RMK A01 T10221023  RH  100%=      5-min Rain = 0
KDO1 131323Z 27005KT M02/M02 A2991 RMK A01 T10211021  RH  100%=      5-min Rain = 0
KDO1 131324Z 28005KT M02/M02 A2991 RMK A01 T10201020  RH  100%=      5-min Rain = 0
KDO1 131325Z 28006KT M02/M02 A2991 RMK A01 T10181018  RH  100%=      5-min Rain = 0
KDO1 131326Z 28005KT M02/M02 A2991 RMK A01 T10171017  RH  100%=      5-min Rain = 0
KDO1 131327Z 29005KT M02/M02 A2991 RMK A01 T10161016  RH  100%=      5-min Rain = 0
KDO1 131328Z 29005KT M02/M02 A2991 RMK A01 T10151015  RH  100%=      5-min Rain = 0
KDO1 131329Z 28004KT M01/M01 A2991 RMK A01 T10131013  RH  100%=      5-min Rain = 0
KDO1 131330Z 27001KT M01/M01 A2991 RMK A01 T10111012  RH  100%=      5-min Rain = 0
KDO1 131331Z 28001KT M01/M01 A2991 RMK A01 T10131013  RH  100%=      5-min Rain = 0
KDO1 131332Z 29001KT M02/M02 A2991 RMK A01 T10151016  RH  100%=      5-min Rain = 0
KDO1 131333Z 28001KT M02/M02 A2991 RMK A01 T10171017  RH  100%=      5-min Rain = 0
KDO1 131334Z 29001KT M02/M02 A2991 RMK A01 T10181018  RH  100%=      5-min Rain = 0
KDO1 131335Z 31002KT M02/M02 A2991 RMK A01 T10181018  RH  100%=      5-min Rain = 0
KDO1 131336Z 33001KT M02/M02 A2991 RMK A01 T10181019  RH  100%=      5-min Rain = 0
KDO1 131337Z 35001KT M02/M02 A2991 RMK A01 T10181018  RH  100%=      5-min Rain = 0
KDO1 131338Z 32001KT M02/M02 A2991 RMK A01 T10181018  RH  100%=      5-min Rain = 0
KDO1 131339Z 31002KT M02/M02 A2991 RMK A01 T10181018  RH  100%=      5-min Rain = 0
KDO1 131340Z 31003KT M02/M02 A2991 RMK A01 T10161017  RH  100%=      5-min Rain = 0
KDO1 131341Z 32004KT M02/M02 A299 RMK A01 T10151015  RH  100%=      5-min Rain = 0
KDO1 131342Z 32003KT M01/M01 A299 RMK A01 T10131014  RH  100%=      5-min Rain = 0
KDO1 131343Z 33003KT M01/M01 A299 RMK A01 T10131013  RH  100%=      5-min Rain = 0
KDO1 131344Z 33003KT M01/M02 A299 RMK A01 T10141015  RH  100%=      5-min Rain = 0
KDO1 131345Z 33002KT M01/M02 A299 RMK A01 T10141015  RH  100%=      5-min Rain = 0
KDO1 131346Z 33001KT M01/M02 A299 RMK A01 T10141015  RH  100%=      5-min Rain = 0
KDO1 131347Z 32001KT M02/M02 A299 RMK A01 T10161016  RH  100%=      5-min Rain = 0
KDO1 131348Z 32000KT M02/M02 A299 RMK A01 T10161017  RH  100%=      5-min Rain = 0
KDO1 131349Z 00000KT M02/M02 A299 RMK A01 T10161017  RH  100%=      5-min Rain = 0
KDO1 131350Z 29000KT M02/M02 A299 RMK A01 T10171017  RH  100%=      5-min Rain = 0
KDO1 131351Z 29001KT M02/M02 A299 RMK A01 T10161017  RH  100%=      5-min Rain = 0
KDO1 131352Z 30001KT M02/M02 A299 RMK A01 T10161016  RH  100%=      5-min Rain = 0
KDO1 131353Z 30002KT M02/M02 A299 RMK A01 T10151016  RH  100%=      5-min Rain = 0
KDO1 131354Z 29002KT M02/M02 A299 RMK A01 T10151015  RH  100%=      5-min Rain = 0
KDO1 131355Z 28001KT M02/M02 A299 RMK A01 T10151015  RH  100%=      5-min Rain = 0
KDO1 131356Z 27001KT M02/M02 A299 RMK A01 T10151015  RH  100%=      5-min Rain = 0
KDO1 131357Z 24001KT M02/M02 A299 RMK A01 T10151015  RH  100%=      5-min Rain = 0
KDO1 131358Z 22001KT M02/M02 A299 RMK A01 T10151015  RH  100%=      5-min Rain = 0
KDO1 131359Z 21001KT M02/M02 A299 RMK A01 T10161016  RH  100%=      5-min Rain = 0
KDO1 131400Z 19002KT M02/M02 A299 RMK A01 T10151015  RH  100%=      5-min Rain = 0
KDO1 131401Z 20002KT M02/M02 A299 RMK A01 T10151015  RH  100%=      5-min Rain = 0
KDO1 131402Z 21003KT M02/M02 A299 RMK A01 T10171017  RH  100%=      5-min Rain = 0
KDO1 131403Z 22003KT M02/M02 A299 RMK A01 T10191020  RH  100%=      5-min Rain = 0
KDO1 131404Z 22003KT M02/M02 A299 RMK A01 T10211022  RH  100%=      5-min Rain = 0
KDO1 131405Z 22003KT M02/M02 A299 RMK A01 T10231024  RH  100%=      5-min Rain = 0
KDO1 131406Z 22004KT M02/M02 A299 RMK A01 T10241024  RH  100%=      5-min Rain = 0
KDO1 131407Z 23005KT M02/M02 A2989 RMK A01 T10241024  RH  100%=      5-min Rain = 0
KDO1 131408Z 23005KT M02/M02 A2989 RMK A01 T10241024  RH  100%=      5-min Rain = 0
KDO1 131409Z 24004KT M02/M02 A2989 RMK A01 T10231024  RH  100%=      5-min Rain = 0
KDO1 131410Z 25005KT M02/M02 A2989 RMK A01 T10231024  RH  100%=      5-min Rain = 0
KDO1 131411Z 25005KT M02/M02 A2989 RMK A01 T10231023  RH  100%=      5-min Rain = 0
KDO1 131412Z 25004KT M02/M02 A2989 RMK A01 T10221022  RH  100%=      5-min Rain = 0
KDO1 131413Z 25004KT M02/M02 A2989 RMK A01 T10211021  RH  100%=      5-min Rain = 0
KDO1 131414Z 25004KT M02/M02 A2989 RMK A01 T10191020  RH  100%=      5-min Rain = 0
KDO1 131415Z 24004KT M02/M02 A2989 RMK A01 T10191019  RH  100%=      5-min Rain = 0
KDO1 131416Z 24004KT M02/M02 A2989 RMK A01 T10171017  RH  100%=      5-min Rain = 0
KDO1 131417Z 24004KT M02/M02 A2989 RMK A01 T10161016  RH  100%=      5-min Rain = 0
KDO1 131418Z 23004KT M01/M02 A2989 RMK A01 T10141015  RH  100%=      5-min Rain = 0
KDO1 131419Z 23004KT M01/M01 A2989 RMK A01 T10141014  RH  100%=      5-min Rain = 0
KDO1 131420Z 23004KT M01/M01 A2989 RMK A01 T10131013  RH  100%=      5-min Rain = 0
KDO1 131421Z 23004KT M01/M01 A2989 RMK A01 T10121013  RH  100%=      5-min Rain = 0
KDO1 131422Z 24003KT M01/M01 A299 RMK A01 T10121012  RH  100%=      5-min Rain = 0
KDO1 131423Z 25003KT M01/M01 A299 RMK A01 T10111011  RH  100%=      5-min Rain = 0
KDO1 131424Z 25002KT M01/M01 A299 RMK A01 T10111011  RH  100%=      5-min Rain = 0
KDO1 131425Z 25002KT M01/M01 A299 RMK A01 T10101010  RH  100%=      5-min Rain = 0
KDO1 131426Z 24001KT M01/M01 A299 RMK A01 T10101010  RH  100%=      5-min Rain = 0
KDO1 131427Z 24000KT M01/M01 A299 RMK A01 T10081008  RH  100%=      5-min Rain = 0
KDO1 131428Z 00000KT M01/M01 A299 RMK A01 T10061007  RH  100%=      5-min Rain = 0
KDO1 131429Z 00000KT M01/M01 A299 RMK A01 T10061006  RH  100%=      5-min Rain = 0
KDO1 131430Z 00000KT M00/M00 A299 RMK A01 T10041004  RH  100%=      5-min Rain = 0
KDO1 131431Z 00000KT M00/M00 A299 RMK A01 T10041004  RH  100%=      5-min Rain = 0
KDO1 131432Z 00000KT M00/M00 A299 RMK A01 T10021002  RH  100%=      5-min Rain = 0
KDO1 131433Z 00000KT M00/M00 A299 RMK A01 T10011003  RH  099%=      5-min Rain = 0
KDO1 131434Z 00000KT 00/00 A299 RMK A01 T00-000-3  RH  098%=      5-min Rain = 0
KDO1 131435Z 00000KT 00/00 A299 RMK A01 T000000-3  RH  098%=      5-min Rain = 0
KDO1 131436Z 25000KT 00/M00 A299 RMK A01 T00011003  RH  097%=      5-min Rain = 0
KDO1 131437Z 25002KT 00/M00 A299 RMK A01 T00011003  RH  097%=      5-min Rain = 0
KDO1 131438Z 25002KT 00/M00 A299 RMK A01 T00011003  RH  097%=      5-min Rain = 0
KDO1 131439Z 25003KT 00/M00 A299 RMK A01 T00011003  RH  097%=      5-min Rain = 0
KDO1 131440Z 25004KT 00/M00 A2991 RMK A01 T00021002  RH  098%=      5-min Rain = 0
KDO1 131441Z 25005KT 00/M00 A2991 RMK A01 T00021002  RH  098%=      5-min Rain = 0
KDO1 131442Z 25004KT 00/M00 A299 RMK A01 T00021001  RH  098%=      5-min Rain = 0
KDO1 131443Z 25004KT 00/00 A299 RMK A01 T00030001  RH  099%=      5-min Rain = 0
KDO1 131444Z 25004KT 00/00 A299 RMK A01 T00040003  RH  099%=      5-min Rain = 0
KDO1 131445Z 25004KT 01/00 A299 RMK A01 T00050004  RH  100%=      5-min Rain = 0
KDO1 131446Z 26004KT 01/01 A299 RMK A01 T00060005  RH  100%=      5-min Rain = 0
KDO1 131447Z 25005KT 01/01 A299 RMK A01 T00070007  RH  100%=      5-min Rain = 0
KDO1 131448Z 26005KT 01/01 A299 RMK A01 T00080008  RH  100%=      5-min Rain = 0
KDO1 131449Z 26005KT 01/01 A299 RMK A01 T00090009  RH  100%=      5-min Rain = 0
KDO1 131450Z 25004KT 01/01 A2991 RMK A01 T00110011  RH  100%=      5-min Rain = 0
KDO1 131451Z 25004KT 01/01 A2991 RMK A01 T00120012  RH  100%=      5-min Rain = 0
KDO1 131452Z 25004KT 02/01 A2991 RMK A01 T00150014  RH  100%=      5-min Rain = 0
KDO1 131453Z 25004KT 02/02 A2991 RMK A01 T00170017  RH  100%=      5-min Rain = 0
KDO1 131454Z 25004KT 02/02 A2991 RMK A01 T00190019  RH  100%=      5-min Rain = 0
KDO1 131455Z 25004KT 02/02 A2991 RMK A01 T00220021  RH  099%=      5-min Rain = 0
KDO1 131456Z 26004KT 02/02 A2991 RMK A01 T00240022  RH  099%=      5-min Rain = 0
KDO1 131457Z 27003KT 03/02 A2991 RMK A01 T00260024  RH  099%=      5-min Rain = 0
KDO1 131458Z 27004KT 03/03 A2991 RMK A01 T00280025  RH  098%=      5-min Rain = 0
KDO1 131459Z 27004KT 03/03 A2991 RMK A01 T00310025  RH  096%=      5-min Rain = 0
KDO1 131500Z 27004KT 03/02 A2991 RMK A01 T00330024  RH  094%=      5-min Rain = 0
KDO1 131501Z 27004KT 03/02 A2991 RMK A01 T00340022  RH  092%=      5-min Rain = 0
KDO1 131502Z 26004KT 04/02 A2991 RMK A01 T00350021  RH  091%=      5-min Rain = 0
KDO1 131503Z 27003KT 04/02 A2991 RMK A01 T00360020  RH  089%=      5-min Rain = 0
KDO1 131504Z 26003KT 04/02 A2991 RMK A01 T00380022  RH  089%=      5-min Rain = 0
KDO1 131505Z 26004KT 04/02 A2991 RMK A01 T00390021  RH  088%=      5-min Rain = 0
KDO1 131506Z 24003KT 04/02 A2991 RMK A01 T00400023  RH  089%=      5-min Rain = 0
KDO1 131507Z 24003KT 04/03 A2991 RMK A01 T00410025  RH  090%=      5-min Rain = 0
KDO1 131508Z 24004KT 04/03 A2991 RMK A01 T00410025  RH  090%=      5-min Rain = 0
KDO1 131509Z 25005KT 04/02 A2991 RMK A01 T00410024  RH  089%=      5-min Rain = 0
KDO1 131510Z 24005KT 04/02 A2991 RMK A01 T00400020  RH  087%=      5-min Rain = 0
KDO1 131511Z 25007KT 04/02 A2991 RMK A01 T00390020  RH  087%=      5-min Rain = 0
KDO1 131512Z 25008KT 04/02 A2991 RMK A01 T00390018  RH  087%=      5-min Rain = 0
KDO1 131513Z 26008KT 04/02 A2991 RMK A01 T00380015  RH  085%=      5-min Rain = 0
KDO1 131514Z 25008KT 04/01 A2991 RMK A01 T00370012  RH  084%=      5-min Rain = 0
KDO1 131515Z 26007KT 04/01 A2991 RMK A01 T00370011  RH  084%=      5-min Rain = 0
KDO1 131516Z 25007KT 04/01 A2991 RMK A01 T00370013  RH  084%=      5-min Rain = 0
KDO1 131517Z 25006KT 04/01 A2991 RMK A01 T00370013  RH  084%=      5-min Rain = 0
KDO1 131518Z 24005KT 04/01 A2991 RMK A01 T00360013  RH  085%=      5-min Rain = 0
KDO1 131519Z 25006KT 04/01 A2991 RMK A01 T00370014  RH  085%=      5-min Rain = 0
KDO1 131520Z 24006KT 04/01 A2991 RMK A01 T00370012  RH  084%=      5-min Rain = 0
KDO1 131521Z 25005KT 04/01 A2992 RMK A01 T00370014  RH  085%=      5-min Rain = 0
KDO1 131522Z 25004KT 04/01 A2992 RMK A01 T00380014  RH  084%=      5-min Rain = 0
KDO1 131523Z 25005KT 04/01 A2992 RMK A01 T00380014  RH  084%=      5-min Rain = 0
KDO1 131524Z 25005KT 04/01 A2992 RMK A01 T00380012  RH  083%=      5-min Rain = 0
KDO1 131525Z 25005KT 04/01 A2992 RMK A01 T00390014  RH  084%=      5-min Rain = 0
KDO1 131526Z 25003KT 04/01 A2992 RMK A01 T00400014  RH  083%=      5-min Rain = 0
KDO1 131527Z 25004KT 04/02 A2992 RMK A01 T00410015  RH  083%=      5-min Rain = 0
KDO1 131528Z 26004KT 04/02 A2992 RMK A01 T00430016  RH  083%=      5-min Rain = 0
KDO1 131529Z 26004KT 04/02 A2992 RMK A01 T00440015  RH  081%=      5-min Rain = 0
KDO1 131530Z 26004KT 04/01 A2992 RMK A01 T00440014  RH  081%=      5-min Rain = 0
KDO1 131531Z 25004KT 05/02 A2992 RMK A01 T00450016  RH  081%=      5-min Rain = 0
KDO1 131532Z 26005KT 05/02 A2992 RMK A01 T00460015  RH  081%=      5-min Rain = 0
KDO1 131533Z 25005KT 05/02 A2992 RMK A01 T00470016  RH  080%=      5-min Rain = 0
KDO1 131534Z 25004KT 05/02 A2992 RMK A01 T00480019  RH  081%=      5-min Rain = 0
KDO1 131535Z 25006KT 05/02 A2992 RMK A01 T00500018  RH  080%=      5-min Rain = 0
KDO1 131536Z 24006KT 05/02 A2992 RMK A01 T00500017  RH  079%=      5-min Rain = 0
KDO1 131537Z 25006KT 05/02 A2992 RMK A01 T00500018  RH  079%=      5-min Rain = 0
KDO1 131538Z 25005KT 05/02 A2992 RMK A01 T00510020  RH  080%=      5-min Rain = 0
KDO1 131539Z 25005KT 05/02 A2992 RMK A01 T00520020  RH  080%=      5-min Rain = 0
KDO1 131540Z 25005KT 05/02 A2992 RMK A01 T00530022  RH  080%=      5-min Rain = 0
KDO1 131541Z 25005KT 06/02 A2992 RMK A01 T00550022  RH  080%=      5-min Rain = 0
KDO1 131542Z 25005KT 06/02 A2992 RMK A01 T00550022  RH  079%=      5-min Rain = 0
KDO1 131543Z 26004KT 06/02 A2992 RMK A01 T00570022  RH  079%=      5-min Rain = 0
KDO1 131544Z 25005KT 06/02 A2992 RMK A01 T00570023  RH  079%=      5-min Rain = 0
KDO1 131545Z 25004KT 06/02 A2992 RMK A01 T00590024  RH  078%=      5-min Rain = 0
KDO1 131546Z 25004KT 06/03 A2992 RMK A01 T00610025  RH  078%=      5-min Rain = 0
KDO1 131547Z 24004KT 06/03 A2992 RMK A01 T00620027  RH  078%=      5-min Rain = 0
KDO1 131548Z 25004KT 06/02 A2992 RMK A01 T00640024  RH  076%=      5-min Rain = 0
KDO1 131549Z 26002KT 06/02 A2991 RMK A01 T00640024  RH  075%=      5-min Rain = 0
KDO1 131550Z 28002KT 07/03 A2991 RMK A01 T00650026  RH  076%=      5-min Rain = 0
KDO1 131551Z 26001KT 07/03 A2991 RMK A01 T00670029  RH  077%=      5-min Rain = 0
KDO1 131552Z 31001KT 07/03 A2991 RMK A01 T00690028  RH  075%=      5-min Rain = 0
KDO1 131553Z 31001KT 07/03 A2991 RMK A01 T00700028  RH  075%=      5-min Rain = 0
KDO1 131554Z 28000KT 07/03 A2991 RMK A01 T00710026  RH  073%=      5-min Rain = 0
KDO1 131555Z 00000KT 07/03 A2992 RMK A01 T00720027  RH  073%=      5-min Rain = 0
KDO1 131556Z 27000KT 07/03 A2992 RMK A01 T00730028  RH  073%=      5-min Rain = 0
KDO1 131557Z 24001KT 08/03 A2992 RMK A01 T00750031  RH  073%=      5-min Rain = 0
KDO1 131558Z 25002KT 08/03 A2992 RMK A01 T00770029  RH  071%=      5-min Rain = 0
KDO1 131559Z 24002KT 08/03 A2992 RMK A01 T00780029  RH  071%=      5-min Rain = 0
KDO1 131600Z 24002KT 08/03 A2992 RMK A01 T00790029  RH  070%=      5-min Rain = 0
KDO1 131601Z 24002KT 08/03 A2992 RMK A01 T00800030  RH  070%=      5-min Rain = 0
KDO1 131602Z 27002KT 08/03 A2992 RMK A01 T00810030  RH  070%=      5-min Rain = 0
KDO1 131603Z 25001KT 08/03 A2992 RMK A01 T00820030  RH  070%=      5-min Rain = 0
KDO1 131604Z 26001KT 08/03 A2992 RMK A01 T00840030  RH  069%=      5-min Rain = 0
KDO1 131605Z 24002KT 09/03 A2992 RMK A01 T00850029  RH  068%=      5-min Rain = 0
KDO1 131606Z 23003KT 09/03 A2992 RMK A01 T00870031  RH  068%=      5-min Rain = 0
KDO1 131607Z 24003KT 09/03 A2991 RMK A01 T00890032  RH  068%=      5-min Rain = 0
KDO1 131608Z 24003KT 09/03 A2991 RMK A01 T00900030  RH  066%=      5-min Rain = 0
KDO1 131609Z 23002KT 09/03 A2991 RMK A01 T00910030  RH  066%=      5-min Rain = 0
KDO1 131610Z 22003KT 09/03 A2991 RMK A01 T00910030  RH  066%=      5-min Rain = 0
KDO1 131611Z 21002KT 09/03 A2991 RMK A01 T00920029  RH  065%=      5-min Rain = 0
KDO1 131612Z 23002KT 09/03 A2991 RMK A01 T00930031  RH  065%=      5-min Rain = 0
KDO1 131613Z 23001KT 09/03 A2991 RMK A01 T00940030  RH  065%=      5-min Rain = 0
KDO1 131614Z 20001KT 10/03 A2991 RMK A01 T00950029  RH  064%=      5-min Rain = 0
KDO1 131615Z 20001KT 10/03 A2991 RMK A01 T00950029  RH  063%=      5-min Rain = 0
KDO1 131616Z 11000KT 10/03 A2991 RMK A01 T00970031  RH  064%=      5-min Rain = 0
KDO1 131617Z 09003KT 10/03 A2991 RMK A01 T00980032  RH  063%=      5-min Rain = 0
KDO1 131618Z 11003KT 10/03 A2991 RMK A01 T00980030  RH  063%=      5-min Rain = 0
KDO1 131619Z 10003KT 10/03 A2991 RMK A01 T00970030  RH  063%=      5-min Rain = 0
KDO1 131620Z 11002KT 10/03 A2991 RMK A01 T00970030  RH  063%=      5-min Rain = 0
KDO1 131621Z 11002KT 10/03 A2991 RMK A01 T00970030  RH  063%=      5-min Rain = 0
KDO1 131622Z 11002KT 10/03 A2991 RMK A01 T00970029  RH  063%=      5-min Rain = 0
KDO1 131623Z 12002KT 10/03 A2991 RMK A01 T00980030  RH  063%=      5-min Rain = 0
KDO1 131624Z 10003KT 10/03 A2991 RMK A01 T00990030  RH  062%=      5-min Rain = 0
KDO1 131625Z 09004KT 10/03 A2991 RMK A01 T01000029  RH  062%=      5-min Rain = 0
KDO1 131626Z 09004KT 10/03 A2991 RMK A01 T01000030  RH  062%=      5-min Rain = 0
KDO1 131627Z 09004KT 10/03 A2991 RMK A01 T01010030  RH  061%=      5-min Rain = 0
KDO1 131628Z 08003KT 10/03 A2991 RMK A01 T01010030  RH  061%=      5-min Rain = 0
KDO1 131629Z 08003KT 10/03 A2991 RMK A01 T01010029  RH  061%=      5-min Rain = 0
KDO1 131630Z 08004KT 10/03 A2991 RMK A01 T01020029  RH  061%=      5-min Rain = 0
KDO1 131631Z 09002KT 10/03 A2991 RMK A01 T01030030  RH  060%=      5-min Rain = 0
KDO1 131632Z 08003KT 11/03 A2991 RMK A01 T01050030  RH  060%=      5-min Rain = 0
KDO1 131633Z 08002KT 11/03 A2991 RMK A01 T01060028  RH  059%=      5-min Rain = 0
KDO1 131634Z 07002KT 11/03 A2991 RMK A01 T01070027  RH  058%=      5-min Rain = 0
KDO1 131635Z 07002KT 11/03 A2991 RMK A01 T01080028  RH  058%=      5-min Rain = 0
KDO1 131636Z 09001KT 11/03 A2991 RMK A01 T01080027  RH  057%=      5-min Rain = 0
KDO1 131637Z 09002KT 11/03 A2991 RMK A01 T01090027  RH  057%=      5-min Rain = 0
KDO1 131638Z 12002KT 11/03 A2991 RMK A01 T01090029  RH  058%=      5-min Rain = 0
KDO1 131639Z 14002KT 11/03 A2991 RMK A01 T01120030  RH  057%=      5-min Rain = 0
KDO1 131640Z 14002KT 11/03 A2991 RMK A01 T01140030  RH  056%=      5-min Rain = 0
KDO1 131641Z 15002KT 11/03 A2991 RMK A01 T01140029  RH  056%=      5-min Rain = 0
KDO1 131642Z 10002KT 12/03 A2991 RMK A01 T01160030  RH  056%=      5-min Rain = 0
KDO1 131643Z 11001KT 12/03 A2991 RMK A01 T01170028  RH  055%=      5-min Rain = 0
KDO1 131644Z 11001KT 12/03 A2991 RMK A01 T01170029  RH  055%=      5-min Rain = 0
KDO1 131645Z 08001KT 12/03 A2991 RMK A01 T01170028  RH  054%=      5-min Rain = 0
KDO1 131646Z 11000KT 12/03 A2991 RMK A01 T01180029  RH  054%=      5-min Rain = 0
KDO1 131647Z 10002KT 12/03 A2991 RMK A01 T01200029  RH  054%=      5-min Rain = 0
KDO1 131648Z 11002KT 12/03 A2991 RMK A01 T01220027  RH  053%=      5-min Rain = 0
KDO1 131649Z 10002KT 12/03 A2991 RMK A01 T01220027  RH  052%=      5-min Rain = 0
KDO1 131650Z 09001KT 12/03 A2991 RMK A01 T01230027  RH  052%=      5-min Rain = 0
KDO1 131651Z 12001KT 12/02 A2991 RMK A01 T01240021  RH  049%=      5-min Rain = 0
KDO1 131652Z 10001KT 13/02 A2991 RMK A01 T01250020  RH  049%=      5-min Rain = 0
KDO1 131653Z 08000KT 13/02 A2991 RMK A01 T01260021  RH  049%=      5-min Rain = 0
KDO1 131654Z 34001KT 13/02 A2991 RMK A01 T01280023  RH  049%=      5-min Rain = 0
KDO1 131655Z 33001KT 13/02 A2991 RMK A01 T01280015  RH  046%=      5-min Rain = 0
KDO1 131656Z 34003KT 13/01 A299 RMK A01 T01290007  RH  043%=      5-min Rain = 0
KDO1 131657Z 01003KT 13/01 A2991 RMK A01 T01320013  RH  044%=      5-min Rain = 0
KDO1 131658Z 34005KT 14/00 A299 RMK A01 T01350003  RH  041%=      5-min Rain = 0
KDO1 131659Z 34004KT 14/M01 A299 RMK A01 T01361006  RH  038%=      5-min Rain = 0
KDO1 131700Z 34005KT 14/M00 A299 RMK A01 T01361003  RH  038%=      5-min Rain = 0
KDO1 131701Z 34004KT 14/M01 A299 RMK A01 T01351006  RH  038%=      5-min Rain = 0
KDO1 131702Z 34004KT 14/M01 A299 RMK A01 T01351006  RH  038%=      5-min Rain = 0
KDO1 131703Z 35005KT 14/M01 A299 RMK A01 T01351006  RH  038%=      5-min Rain = 0
KDO1 131704Z 36003KT 14/M01 A299 RMK A01 T01351008  RH  037%=      5-min Rain = 0
KDO1 131705Z 35004KT 14/M01 A299 RMK A01 T01351006  RH  038%=      5-min Rain = 0
KDO1 131706Z 35003KT 14/M01 A299 RMK A01 T01361007  RH  037%=      5-min Rain = 0
KDO1 131707Z 00004KT 14/M01 A299 RMK A01 T01361007  RH  037%=      5-min Rain = 0
KDO1 131708Z 01004KT 14/M01 A299 RMK A01 T01361005  RH  038%=      5-min Rain = 0
KDO1 131709Z 03004KT 14/M01 A299 RMK A01 T01381007  RH  037%=      5-min Rain = 0
KDO1 131710Z 03005KT 14/M01 A299 RMK A01 T01381006  RH  037%=      5-min Rain = 0
KDO1 131711Z 03006KT 14/M01 A299 RMK A01 T01381006  RH  037%=      5-min Rain = 0
KDO1 131712Z 04005KT 14/M01 A2989 RMK A01 T01371006  RH  037%=      5-min Rain = 0
KDO1 131713Z 03005KT 14/M00 A2989 RMK A01 T01381003  RH  038%=      5-min Rain = 0
KDO1 131714Z 02005KT 14/M00 A2989 RMK A01 T01401001  RH  038%=      5-min Rain = 0
KDO1 131715Z 01005KT 14/M01 A2989 RMK A01 T01411006  RH  036%=      5-min Rain = 0
KDO1 131716Z 01003KT 14/M01 A2989 RMK A01 T01411008  RH  036%=      5-min Rain = 0
KDO1 131717Z 04001KT 14/M01 A2989 RMK A01 T01401007  RH  036%=      5-min Rain = 0
KDO1 131718Z 36002KT 14/M01 A2989 RMK A01 T01401005  RH  037%=      5-min Rain = 0
KDO1 131719Z 01003KT 14/M01 A2989 RMK A01 T01411008  RH  036%=      5-min Rain = 0
KDO1 131720Z 00002KT 14/M01 A2989 RMK A01 T01411007  RH  036%=      5-min Rain = 0
KDO1 131721Z 01003KT 14/M00 A2989 RMK A01 T01421004  RH  037%=      5-min Rain = 0
KDO1 131722Z 36004KT 14/M01 A2989 RMK A01 T01431007  RH  036%=      5-min Rain = 0
KDO1 131723Z 35004KT 14/M01 A2989 RMK A01 T01441005  RH  036%=      5-min Rain = 0
KDO1 131724Z 35003KT 15/M01 A2989 RMK A01 T01451005  RH  036%=      5-min Rain = 0
KDO1 131725Z 01004KT 15/M00 A2988 RMK A01 T01461004  RH  036%=      5-min Rain = 0
KDO1 131726Z 35004KT 15/M01 A2988 RMK A01 T01471006  RH  035%=      5-min Rain = 0
KDO1 131727Z 01005KT 15/M00 A2988 RMK A01 T01481004  RH  035%=      5-min Rain = 0
KDO1 131728Z 34005KT 15/M00 A2989 RMK A01 T01491004  RH  035%=      5-min Rain = 0
KDO1 131729Z 35005KT 15/M00 A2989 RMK A01 T01521002  RH  035%=      5-min Rain = 0
KDO1 131730Z 29004KT 15/M01 A2988 RMK A01 T01531008  RH  033%=      5-min Rain = 0
KDO1 131731Z 33004KT 15/M01 A2988 RMK A01 T01531010  RH  033%=      5-min Rain = 0
KDO1 131732Z 34004KT 15/M01 A2988 RMK A01 T01531008  RH  033%=      5-min Rain = 0
KDO1 131733Z 33003KT 15/M01 A2988 RMK A01 T01541008  RH  033%=      5-min Rain = 0
KDO1 131734Z 35002KT 16/M01 A2988 RMK A01 T01551008  RH  033%=      5-min Rain = 0
KDO1 131735Z 35003KT 16/M01 A2988 RMK A01 T01551010  RH  032%=      5-min Rain = 0
KDO1 131736Z 35000KT 15/M01 A2988 RMK A01 T01541012  RH  032%=      5-min Rain = 0
KDO1 131737Z 04001KT 15/M01 A2988 RMK A01 T01541011  RH  032%=      5-min Rain = 0
KDO1 131738Z 01002KT 15/M01 A2988 RMK A01 T01541011  RH  032%=      5-min Rain = 0
KDO1 131739Z 30005KT 16/M01 A2988 RMK A01 T01551009  RH  033%=      5-min Rain = 0
KDO1 131740Z 31008KT 16/M01 A2988 RMK A01 T01571013  RH  031%=      5-min Rain = 0
KDO1 131741Z 32007KT 16/M02 A2988 RMK A01 T01581016  RH  030%=      5-min Rain = 0
KDO1 131742Z 32008KT 16/M02 A2988 RMK A01 T01581016  RH  030%=      5-min Rain = 0
KDO1 131743Z 31009KT 16/M02 A2988 RMK A01 T01591017  RH  030%=      5-min Rain = 0
KDO1 131744Z 30007KT 16/M02 A2988 RMK A01 T01591017  RH  030%=      5-min Rain = 0
KDO1 131745Z 31006KT 16/M02 A2988 RMK A01 T01581017  RH  030%=      5-min Rain = 0
KDO1 131746Z 32009KT 16/M02 A2988 RMK A01 T01591017  RH  030%=      5-min Rain = 0
KDO1 131747Z 36006KT 16/M02 A2988 RMK A01 T01581015  RH  030%=      5-min Rain = 0
KDO1 131748Z 00005KT 16/M02 A2988 RMK A01 T01571017  RH  030%=      5-min Rain = 0
KDO1 131749Z 35004KT 16/M02 A2988 RMK A01 T01561016  RH  031%=      5-min Rain = 0
KDO1 131750Z 32005KT 16/M01 A2988 RMK A01 T01561014  RH  031%=      5-min Rain = 0
KDO1 131751Z 32005KT 16/M01 A2988 RMK A01 T01591009  RH  032%=      5-min Rain = 0
KDO1 131752Z 32009KT 16/M01 A2988 RMK A01 T01631013  RH  030%=      5-min Rain = 0
KDO1 131753Z 30008KT 16/M01 A2988 RMK A01 T01621014  RH  030%=      5-min Rain = 0
KDO1 131754Z 30010KT 16/M02 A2988 RMK A01 T01611017  RH  030%=      5-min Rain = 0
KDO1 131755Z 31010KT 16/M02 A2988 RMK A01 T01591017  RH  030%=      5-min Rain = 0
KDO1 131756Z 29007KT 16/M02 A2988 RMK A01 T01591015  RH  030%=      5-min Rain = 0
KDO1 131757Z 31009KT 16/M02 A2987 RMK A01 T01591015  RH  030%=      5-min Rain = 0
KDO1 131758Z 31009KT 16/M02 A2987 RMK A01 T01601015  RH  030%=      5-min Rain = 0
KDO1 131759Z 31009KT 16/M02 A2987 RMK A01 T01591017  RH  030%=      5-min Rain = 0
KDO1 131800Z 32009KT 16/M02 A2987 RMK A01 T01581016  RH  030%=      5-min Rain = 0
KDO1 131801Z 32007KT 16/M02 A2987 RMK A01 T01581016  RH  030%=      5-min Rain = 0
KDO1 131802Z 32007KT 16/M02 A2987 RMK A01 T01581015  RH  030%=      5-min Rain = 0
KDO1 131803Z 31007KT 16/M02 A2987 RMK A01 T01591016  RH  030%=      5-min Rain = 0
KDO1 131804Z 30005KT 16/M02 A2987 RMK A01 T01581015  RH  031%=      5-min Rain = 0
KDO1 131805Z 30006KT 16/M02 A2987 RMK A01 T01581016  RH  030%=      5-min Rain = 0
KDO1 131806Z 29005KT 16/M02 A2987 RMK A01 T01581015  RH  031%=      5-min Rain = 0
KDO1 131807Z 29003KT 16/M02 A2987 RMK A01 T01581015  RH  031%=      5-min Rain = 0
KDO1 131808Z 27003KT 16/M02 A2986 RMK A01 T01581016  RH  030%=      5-min Rain = 0
KDO1 131809Z 26003KT 16/M02 A2986 RMK A01 T01581016  RH  030%=      5-min Rain = 0
KDO1 131810Z 25002KT 16/M02 A2986 RMK A01 T01581016  RH  030%=      5-min Rain = 0
KDO1 131811Z 27002KT 16/M02 A2986 RMK A01 T01581016  RH  030%=      5-min Rain = 0
KDO1 131812Z 33003KT 16/M01 A2986 RMK A01 T01591013  RH  031%=      5-min Rain = 0
KDO1 131813Z 32005KT 16/M01 A2986 RMK A01 T01611013  RH  030%=      5-min Rain = 0
KDO1 131814Z 33007KT 16/M02 A2986 RMK A01 T01621015  RH  030%=      5-min Rain = 0
KDO1 131815Z 33008KT 16/M01 A2986 RMK A01 T01621014  RH  030%=      5-min Rain = 0
KDO1 131816Z 31007KT 16/M01 A2986 RMK A01 T01641013  RH  030%=      5-min Rain = 0
KDO1 131817Z 31007KT 16/M01 A2985 RMK A01 T01641014  RH  029%=      5-min Rain = 0
KDO1 131818Z 34007KT 16/M01 A2986 RMK A01 T01641012  RH  030%=      5-min Rain = 0
KDO1 131819Z 32007KT 17/M01 A2986 RMK A01 T01651011  RH  030%=      5-min Rain = 0
KDO1 131820Z 33008KT 17/M01 A2985 RMK A01 T01671011  RH  030%=      5-min Rain = 0
KDO1 131821Z 35010KT 17/M01 A2985 RMK A01 T01671012  RH  029%=      5-min Rain = 0
KDO1 131822Z 34007KT 17/M01 A2985 RMK A01 T01671012  RH  030%=      5-min Rain = 0
KDO1 131823Z 33008KT 17/M01 A2985 RMK A01 T01661012  RH  030%=      5-min Rain = 0
KDO1 131824Z 32007KT 17/M01 A2985 RMK A01 T01661013  RH  030%=      5-min Rain = 0
KDO1 131825Z 34008KT 17/M01 A2985 RMK A01 T01661010  RH  030%=      5-min Rain = 0
KDO1 131826Z 34009KT 17/M02 A2985 RMK A01 T01671015  RH  029%=      5-min Rain = 0
KDO1 131827Z 32010KT 17/M01 A2985 RMK A01 T01671013  RH  029%=      5-min Rain = 0
KDO1 131828Z 31010KT 17/M02 A2985 RMK A01 T01681017  RH  028%=      5-min Rain = 0
KDO1 131829Z 30010KT 17/M02 A2985 RMK A01 T01681017  RH  028%=      5-min Rain = 0
KDO1 131830Z 31008KT 17/M02 A2985 RMK A01 T01671017  RH  028%=      5-min Rain = 0
KDO1 131831Z 34010KT 17/M02 A2985 RMK A01 T01681016  RH  028%=      5-min Rain = 0
KDO1 131832Z 35011KT 17/M02 A2985 RMK A01 T01681017  RH  028%=      5-min Rain = 0
KDO1 131833Z 33008KT 17/M02 A2984 RMK A01 T01671017  RH  028%=      5-min Rain = 0
KDO1 131834Z 33011KT 17/M02 A2984 RMK A01 T01691016  RH  028%=      5-min Rain = 0
KDO1 131835Z 33010KT 17/M02 A2984 RMK A01 T01681020  RH  028%=      5-min Rain = 0
KDO1 131836Z 34008KT 17/M02 A2984 RMK A01 T01661021  RH  028%=      5-min Rain = 0
KDO1 131837Z 33011KT 17/M02 A2984 RMK A01 T01651020  RH  028%=      5-min Rain = 0
KDO1 131838Z 35009KT 17/M02 A2985 RMK A01 T01651019  RH  028%=      5-min Rain = 0
KDO1 131839Z 33010KT 17/M02 A2984 RMK A01 T01651020  RH  028%=      5-min Rain = 0
KDO1 131840Z 33008KT 17/M02 A2984 RMK A01 T01651021  RH  028%=      5-min Rain = 0
KDO1 131841Z 33007KT 17/M02 A2984 RMK A01 T01651022  RH  028%=      5-min Rain = 0
KDO1 131842Z 35007KT 17/M02 A2984 RMK A01 T01651020  RH  028%=      5-min Rain = 0
KDO1 131843Z 35009KT 17/M02 A2985 RMK A01 T01661019  RH  028%=      5-min Rain = 0
KDO1 131844Z 33009KT 17/M02 A2985 RMK A01 T01681020  RH  028%=      5-min Rain = 0
KDO1 131845Z 34005KT 17/M02 A2985 RMK A01 T01681020  RH  028%=      5-min Rain = 0
KDO1 131846Z 36005KT 17/M02 A2984 RMK A01 T01671020  RH  028%=      5-min Rain = 0
KDO1 131847Z 31006KT 17/M02 A2984 RMK A01 T01671018  RH  028%=      5-min Rain = 0
KDO1 131848Z 31007KT 17/M02 A2984 RMK A01 T01681018  RH  028%=      5-min Rain = 0
KDO1 131849Z 31009KT 17/M02 A2984 RMK A01 T01691017  RH  028%=      5-min Rain = 0
KDO1 131850Z 32008KT 17/M02 A2984 RMK A01 T01681019  RH  028%=      5-min Rain = 0
KDO1 131851Z 33007KT 17/M02 A2984 RMK A01 T01651018  RH  028%=      5-min Rain = 0
KDO1 131852Z 32008KT 17/M02 A2984 RMK A01 T01651017  RH  029%=      5-min Rain = 0
KDO1 131853Z 31008KT 17/M02 A2984 RMK A01 T01661018  RH  028%=      5-min Rain = 0
KDO1 131854Z 33010KT 17/M02 A2984 RMK A01 T01651019  RH  028%=      5-min Rain = 0
KDO1 131855Z 33008KT 16/M02 A2984 RMK A01 T01641018  RH  029%=      5-min Rain = 0
KDO1 131856Z 33006KT 17/M02 A2984 RMK A01 T01651017  RH  029%=      5-min Rain = 0
KDO1 131857Z 33010KT 17/M02 A2984 RMK A01 T01661018  RH  028%=      5-min Rain = 0
KDO1 131858Z 32008KT 17/M02 A2984 RMK A01 T01661018  RH  028%=      5-min Rain = 0
KDO1 131859Z 32005KT 17/M02 A2984 RMK A01 T01661017  RH  029%=      5-min Rain = 0
KDO1 131900Z 32005KT 17/M02 A2984 RMK A01 T01671016  RH  029%=      5-min Rain = 0
KDO1 131901Z 32009KT 17/M02 A2984 RMK A01 T01691016  RH  028%=      5-min Rain = 0
KDO1 131902Z 33007KT 17/M02 A2984 RMK A01 T01681019  RH  028%=      5-min Rain = 0
KDO1 131903Z 30006KT 17/M02 A2984 RMK A01 T01671019  RH  028%=      5-min Rain = 0
KDO1 131904Z 31006KT 17/M02 A2984 RMK A01 T01671019  RH  028%=      5-min Rain = 0
KDO1 131905Z 32005KT 17/M02 A2984 RMK A01 T01661018  RH  028%=      5-min Rain = 0
KDO1 131906Z 33009KT 17/M02 A2984 RMK A01 T01661019  RH  028%=      5-min Rain = 0
KDO1 131907Z 34008KT 17/M02 A2984 RMK A01 T01671021  RH  028%=      5-min Rain = 0
KDO1 131908Z 33007KT 17/M02 A2984 RMK A01 T01681021  RH  027%=      5-min Rain = 0
KDO1 131909Z 33009KT 17/M02 A2984 RMK A01 T01681024  RH  027%=      5-min Rain = 0
KDO1 131910Z 33010KT 17/M03 A2984 RMK A01 T01681026  RH  026%=      5-min Rain = 0
KDO1 131911Z 34008KT 17/M02 A2984 RMK A01 T01671024  RH  027%=      5-min Rain = 0
KDO1 131912Z 33008KT 17/M02 A2984 RMK A01 T01671023  RH  027%=      5-min Rain = 0
KDO1 131913Z 30007KT 17/M02 A2984 RMK A01 T01681022  RH  027%=      5-min Rain = 0
KDO1 131914Z 28006KT 17/M02 A2983 RMK A01 T01691023  RH  027%=      5-min Rain = 0
KDO1 131915Z 29006KT 17/M02 A2983 RMK A01 T01691023  RH  027%=      5-min Rain = 0
KDO1 131916Z 31006KT 17/M02 A2983 RMK A01 T01701023  RH  027%=      5-min Rain = 0
KDO1 131917Z 33006KT 17/M03 A2983 RMK A01 T01711026  RH  026%=      5-min Rain = 0
KDO1 131918Z 30006KT 17/M03 A2983 RMK A01 T01701025  RH  026%=      5-min Rain = 0
KDO1 131919Z 28006KT 17/M03 A2983 RMK A01 T01701025  RH  026%=      5-min Rain = 0
KDO1 131920Z 28005KT 17/M02 A2983 RMK A01 T01681024  RH  027%=      5-min Rain = 0
KDO1 131921Z 29006KT 17/M02 A2983 RMK A01 T01701023  RH  027%=      5-min Rain = 0
KDO1 131922Z 30005KT 17/M02 A2983 RMK A01 T01701022  RH  027%=      5-min Rain = 0
KDO1 131923Z 32006KT 17/M03 A2983 RMK A01 T01721025  RH  026%=      5-min Rain = 0
KDO1 131924Z 30007KT 17/M03 A2983 RMK A01 T01711025  RH  026%=      5-min Rain = 0
KDO1 131925Z 32005KT 17/M03 A2983 RMK A01 T01701025  RH  026%=      5-min Rain = 0
KDO1 131926Z 33005KT 17/M02 A2983 RMK A01 T01701023  RH  027%=      5-min Rain = 0
KDO1 131927Z 33008KT 17/M02 A2983 RMK A01 T01731024  RH  026%=      5-min Rain = 0
KDO1 131928Z 32009KT 17/M03 A2983 RMK A01 T01741028  RH  025%=      5-min Rain = 0
KDO1 131929Z 32006KT 17/M03 A2983 RMK A01 T01721027  RH  025%=      5-min Rain = 0
KDO1 131930Z 32007KT 17/M03 A2983 RMK A01 T01721026  RH  026%=      5-min Rain = 0
KDO1 131931Z 32006KT 17/M03 A2983 RMK A01 T01731027  RH  025%=      5-min Rain = 0
KDO1 131932Z 33007KT 17/M03 A2983 RMK A01 T01741026  RH  025%=      5-min Rain = 0
KDO1 131933Z 32007KT 17/M03 A2983 RMK A01 T01741028  RH  025%=      5-min Rain = 0
KDO1 131934Z 31007KT 17/M03 A2983 RMK A01 T01741028  RH  025%=      5-min Rain = 0
KDO1 131935Z 31008KT 17/M03 A2983 RMK A01 T01741028  RH  025%=      5-min Rain = 0
KDO1 131936Z 31009KT 17/M03 A2983 RMK A01 T01731030  RH  025%=      5-min Rain = 0
KDO1 131937Z 32008KT 17/M03 A2983 RMK A01 T01711031  RH  025%=      5-min Rain = 0
KDO1 131938Z 35004KT 17/M03 A2983 RMK A01 T01721027  RH  026%=      5-min Rain = 0
KDO1 131939Z 34006KT 18/M03 A2983 RMK A01 T01751026  RH  025%=      5-min Rain = 0
KDO1 131940Z 32007KT 18/M03 A2983 RMK A01 T01771028  RH  025%=      5-min Rain = 0
KDO1 131941Z 33006KT 17/M03 A2983 RMK A01 T01741032  RH  024%=      5-min Rain = 0
KDO1 131942Z 33008KT 17/M03 A2983 RMK A01 T01731030  RH  025%=      5-min Rain = 0
KDO1 131943Z 34008KT 17/M03 A2983 RMK A01 T01741031  RH  025%=      5-min Rain = 0
KDO1 131944Z 34007KT 17/M03 A2983 RMK A01 T01741031  RH  025%=      5-min Rain = 0
KDO1 131945Z 35006KT 17/M03 A2983 RMK A01 T01731031  RH  025%=      5-min Rain = 0
KDO1 131946Z 32008KT 17/M03 A2983 RMK A01 T01741029  RH  025%=      5-min Rain = 0
KDO1 131947Z 32008KT 18/M03 A2983 RMK A01 T01761029  RH  025%=      5-min Rain = 0
KDO1 131948Z 32008KT 18/M03 A2983 RMK A01 T01761030  RH  024%=      5-min Rain = 0
KDO1 131949Z 32007KT 18/M03 A2983 RMK A01 T01761029  RH  025%=      5-min Rain = 0
KDO1 131950Z 32008KT 18/M03 A2983 RMK A01 T01771029  RH  024%=      5-min Rain = 0
KDO1 131951Z 33006KT 18/M03 A2983 RMK A01 T01781029  RH  024%=      5-min Rain = 0
KDO1 131952Z 33008KT 18/M03 A2983 RMK A01 T01771029  RH  024%=      5-min Rain = 0
KDO1 131953Z 33009KT 18/M03 A2983 RMK A01 T01771031  RH  024%=      5-min Rain = 0
KDO1 131954Z 32007KT 18/M03 A2983 RMK A01 T01771030  RH  024%=      5-min Rain = 0
KDO1 131955Z 32006KT 18/M03 A2983 RMK A01 T01771029  RH  024%=      5-min Rain = 0
KDO1 131956Z 31008KT 18/M03 A2983 RMK A01 T01791028  RH  024%=      5-min Rain = 0
KDO1 131957Z 31008KT 18/M03 A2983 RMK A01 T01791031  RH  024%=      5-min Rain = 0
KDO1 131958Z 33008KT 18/M03 A2983 RMK A01 T01781029  RH  024%=      5-min Rain = 0
KDO1 131959Z 33010KT 18/M03 A2983 RMK A01 T01791030  RH  024%=      5-min Rain = 0
KDO1 132000Z 32010KT 18/M03 A2983 RMK A01 T01781031  RH  024%=      5-min Rain = 0
KDO1 132001Z 32010G15KT 18/M03 A2983 RMK A01 T01771031  RH  024%=      5-min Rain = 0
KDO1 132002Z 33011KT 18/M03 A2983 RMK A01 T01771031  RH  024%=      5-min Rain = 0
KDO1 132003Z 33009KT 18/M03 A2983 RMK A01 T01771031  RH  024%=      5-min Rain = 0
KDO1 132004Z 33008KT 18/M03 A2983 RMK A01 T01771030  RH  024%=      5-min Rain = 0
KDO1 132005Z 33007KT 18/M03 A2983 RMK A01 T01771028  RH  025%=      5-min Rain = 0
KDO1 132006Z 33007KT 18/M03 A2983 RMK A01 T01781028  RH  024%=      5-min Rain = 0
KDO1 132007Z 33009KT 18/M03 A2983 RMK A01 T01781029  RH  024%=      5-min Rain = 0
KDO1 132008Z 33007KT 18/M03 A2983 RMK A01 T01771030  RH  024%=      5-min Rain = 0
KDO1 132009Z 32010KT 18/M03 A2983 RMK A01 T01761031  RH  024%=      5-min Rain = 0
KDO1 132010Z 32010KT 18/M03 A2982 RMK A01 T01761031  RH  024%=      5-min Rain = 0
KDO1 132011Z 32010KT 18/M03 A2982 RMK A01 T01771031  RH  024%=      5-min Rain = 0
KDO1 132012Z 32009KT 18/M03 A2982 RMK A01 T01771033  RH  024%=      5-min Rain = 0
KDO1 132013Z 31008KT 18/M03 A2982 RMK A01 T01761031  RH  024%=      5-min Rain = 0
KDO1 132014Z 32010KT 18/M03 A2983 RMK A01 T01771031  RH  024%=      5-min Rain = 0
KDO1 132015Z 31008KT 18/M03 A2983 RMK A01 T01781031  RH  024%=      5-min Rain = 0
KDO1 132016Z 32009KT 18/M03 A2983 RMK A01 T01791030  RH  024%=      5-min Rain = 0
KDO1 132017Z 32010KT 18/M03 A2983 RMK A01 T01801032  RH  023%=      5-min Rain = 0
KDO1 132018Z 33009KT 18/M03 A2983 RMK A01 T01791032  RH  023%=      5-min Rain = 0
KDO1 132019Z 33008KT 18/M03 A2983 RMK A01 T01781031  RH  024%=      5-min Rain = 0
KDO1 132020Z 33009KT 18/M03 A2983 RMK A01 T01791030  RH  024%=      5-min Rain = 0
KDO1 132021Z 32010KT 18/M03 A2983 RMK A01 T01801031  RH  024%=      5-min Rain = 0
KDO1 132022Z 33009KT 18/M03 A2983 RMK A01 T01791032  RH  024%=      5-min Rain = 0
KDO1 132023Z 30006KT 18/M03 A2983 RMK A01 T01771032  RH  024%=      5-min Rain = 0
KDO1 132024Z 31006KT 18/M03 A2983 RMK A01 T01781030  RH  024%=      5-min Rain = 0
KDO1 132025Z 33007KT 18/M03 A2983 RMK A01 T01791030  RH  024%=      5-min Rain = 0
KDO1 132026Z 35008KT 18/M03 A2983 RMK A01 T01801029  RH  024%=      5-min Rain = 0
KDO1 132027Z 34004KT 18/M03 A2983 RMK A01 T01801028  RH  024%=      5-min Rain = 0
KDO1 132028Z 35006KT 18/M03 A2983 RMK A01 T01791030  RH  024%=      5-min Rain = 0
KDO1 132029Z 35007KT 18/M03 A2983 RMK A01 T01781030  RH  024%=      5-min Rain = 0
KDO1 132030Z 35005KT 18/M03 A2983 RMK A01 T01771029  RH  024%=      5-min Rain = 0
KDO1 132031Z 34005KT 18/M03 A2983 RMK A01 T01781028  RH  024%=      5-min Rain = 0
KDO1 132032Z 30006KT 18/M03 A2983 RMK A01 T01791028  RH  024%=      5-min Rain = 0
KDO1 132033Z 28007KT 18/M03 A2982 RMK A01 T01801029  RH  024%=      5-min Rain = 0
KDO1 132034Z 29007KT 18/M03 A2982 RMK A01 T01801027  RH  024%=      5-min Rain = 0
KDO1 132035Z 30005KT 18/M03 A2982 RMK A01 T01811029  RH  024%=      5-min Rain = 0
KDO1 132036Z 29004KT 18/M03 A2982 RMK A01 T01801030  RH  024%=      5-min Rain = 0
KDO1 132037Z 29004KT 18/M03 A2982 RMK A01 T01791028  RH  024%=      5-min Rain = 0
KDO1 132038Z 31004KT 18/M03 A2982 RMK A01 T01791028  RH  024%=      5-min Rain = 0
KDO1 132039Z 31004KT 18/M03 A2982 RMK A01 T01801027  RH  024%=      5-min Rain = 0
KDO1 132040Z 29005KT 18/M03 A2982 RMK A01 T01821028  RH  024%=      5-min Rain = 0
KDO1 132041Z 29008KT 18/M03 A2982 RMK A01 T01821031  RH  023%=      5-min Rain = 0
KDO1 132042Z 30007KT 18/M03 A2983 RMK A01 T01811032  RH  023%=      5-min Rain = 0
KDO1 132043Z 30008KT 18/M03 A2983 RMK A01 T01811032  RH  023%=      5-min Rain = 0
KDO1 132044Z 31008KT 18/M03 A2983 RMK A01 T01801032  RH  023%=      5-min Rain = 0
KDO1 132045Z 31007KT 18/M03 A2983 RMK A01 T01811031  RH  024%=      5-min Rain = 0
KDO1 132046Z 31008KT 18/M03 A2982 RMK A01 T01801029  RH  024%=      5-min Rain = 0
KDO1 132047Z 31006KT 18/M03 A2982 RMK A01 T01811030  RH  024%=      5-min Rain = 0
KDO1 132048Z 32005KT 18/M03 A2982 RMK A01 T01811029  RH  024%=      5-min Rain = 0
KDO1 132049Z 33006KT 18/M03 A2983 RMK A01 T01811031  RH  023%=      5-min Rain = 0
KDO1 132050Z 32008KT 18/M03 A2983 RMK A01 T01811031  RH  023%=      5-min Rain = 0
KDO1 132051Z 31007KT 18/M03 A2983 RMK A01 T01801032  RH  023%=      5-min Rain = 0
KDO1 132052Z 32009KT 18/M03 A2983 RMK A01 T01801029  RH  024%=      5-min Rain = 0
KDO1 132053Z 31009KT 18/M03 A2983 RMK A01 T01811029  RH  024%=      5-min Rain = 0
KDO1 132054Z 30007KT 18/M03 A2983 RMK A01 T01821030  RH  023%=      5-min Rain = 0
KDO1 132055Z 31006KT 18/M03 A2983 RMK A01 T01811029  RH  024%=      5-min Rain = 0
KDO1 132056Z 32007KT 18/M03 A2983 RMK A01 T01821030  RH  024%=      5-min Rain = 0
KDO1 132057Z 31005KT 18/M03 A2983 RMK A01 T01811030  RH  024%=      5-min Rain = 0
KDO1 132058Z 32006KT 18/M03 A2983 RMK A01 T01811029  RH  024%=      5-min Rain = 0
KDO1 132059Z 32008KT 18/M03 A2983 RMK A01 T01811029  RH  024%=      5-min Rain = 0
KDO1 132100Z 32007KT 18/M03 A2983 RMK A01 T01811029  RH  024%=      5-min Rain = 0
KDO1 132101Z 33008KT 18/M03 A2983 RMK A01 T01811029  RH  024%=      5-min Rain = 0
KDO1 132102Z 32006KT 18/M03 A2983 RMK A01 T01821030  RH  023%=      5-min Rain = 0
KDO1 132103Z 31005KT 18/M03 A2983 RMK A01 T01831028  RH  024%=      5-min Rain = 0
KDO1 132104Z 31007KT 19/M03 A2983 RMK A01 T01851027  RH  024%=      5-min Rain = 0
KDO1 132105Z 32009KT 19/M03 A2982 RMK A01 T01851029  RH  023%=      5-min Rain = 0
KDO1 132106Z 32009KT 19/M03 A2983 RMK A01 T01851029  RH  023%=      5-min Rain = 0
KDO1 132107Z 31009KT 18/M03 A2983 RMK A01 T01841030  RH  023%=      5-min Rain = 0
KDO1 132108Z 32006KT 18/M03 A2983 RMK A01 T01831030  RH  023%=      5-min Rain = 0
KDO1 132109Z 31007KT 18/M03 A2983 RMK A01 T01831030  RH  023%=      5-min Rain = 0
KDO1 132110Z 30008KT 18/M03 A2983 RMK A01 T01841030  RH  023%=      5-min Rain = 0
KDO1 132111Z 31008KT 18/M03 A2983 RMK A01 T01841032  RH  023%=      5-min Rain = 0
KDO1 132112Z 32008KT 18/M03 A2983 RMK A01 T01831031  RH  023%=      5-min Rain = 0
KDO1 132113Z 33008KT 18/M03 A2983 RMK A01 T01831030  RH  023%=      5-min Rain = 0
KDO1 132114Z 33008KT 18/M03 A2983 RMK A01 T01841030  RH  023%=      5-min Rain = 0
KDO1 132115Z 33011KT 19/M03 A2983 RMK A01 T01851031  RH  023%=      5-min Rain = 0
KDO1 132116Z 33010KT 18/M03 A2983 RMK A01 T01841032  RH  023%=      5-min Rain = 0
KDO1 132117Z 32009KT 18/M03 A2983 RMK A01 T01841033  RH  023%=      5-min Rain = 0
KDO1 132118Z 33009KT 18/M03 A2983 RMK A01 T01841034  RH  022%=      5-min Rain = 0
KDO1 132119Z 34010KT 18/M03 A2983 RMK A01 T01831034  RH  023%=      5-min Rain = 0
KDO1 132120Z 32011KT 18/M03 A2983 RMK A01 T01831033  RH  023%=      5-min Rain = 0
KDO1 132121Z 34011KT 18/M03 A2983 RMK A01 T01831033  RH  023%=      5-min Rain = 0
KDO1 132122Z 33008KT 18/M03 A2983 RMK A01 T01831031  RH  023%=      5-min Rain = 0
KDO1 132123Z 34007KT 18/M03 A2983 RMK A01 T01831031  RH  023%=      5-min Rain = 0
KDO1 132124Z 34005KT 18/M03 A2983 RMK A01 T01831030  RH  023%=      5-min Rain = 0
KDO1 132125Z 34007KT 18/M03 A2983 RMK A01 T01841030  RH  023%=      5-min Rain = 0
KDO1 132126Z 33006KT 19/M03 A2983 RMK A01 T01851030  RH  023%=      5-min Rain = 0
KDO1 132127Z 33010KT 19/M03 A2983 RMK A01 T01861029  RH  023%=      5-min Rain = 0
KDO1 132128Z 34008KT 19/M03 A2983 RMK A01 T01861031  RH  023%=      5-min Rain = 0
KDO1 132129Z 32007KT 19/M03 A2983 RMK A01 T01861031  RH  023%=      5-min Rain = 0
KDO1 132130Z 32009KT 19/M03 A2983 RMK A01 T01861030  RH  023%=      5-min Rain = 0
KDO1 132131Z 33008KT 19/M03 A2983 RMK A01 T01861030  RH  023%=      5-min Rain = 0
KDO1 132132Z 31009KT 19/M03 A2983 RMK A01 T01861030  RH  023%=      5-min Rain = 0
KDO1 132133Z 31010KT 19/M03 A2983 RMK A01 T01861031  RH  023%=      5-min Rain = 0
KDO1 132134Z 31008KT 18/M03 A2983 RMK A01 T01841031  RH  023%=      5-min Rain = 0
KDO1 132135Z 31008KT 18/M03 A2984 RMK A01 T01831029  RH  023%=      5-min Rain = 0
KDO1 132136Z 32007KT 18/M03 A2984 RMK A01 T01841029  RH  023%=      5-min Rain = 0
KDO1 132137Z 31006KT 18/M03 A2984 RMK A01 T01841028  RH  024%=      5-min Rain = 0
KDO1 132138Z 32006KT 19/M03 A2984 RMK A01 T01861028  RH  023%=      5-min Rain = 0
KDO1 132139Z 32005KT 19/M03 A2984 RMK A01 T01861027  RH  023%=      5-min Rain = 0
KDO1 132140Z 33009KT 19/M03 A2984 RMK A01 T01871027  RH  023%=      5-min Rain = 0
KDO1 132141Z 33010KT 19/M03 A2984 RMK A01 T01881028  RH  023%=      5-min Rain = 0
KDO1 132142Z 32008KT 19/M03 A2984 RMK A01 T01871030  RH  023%=      5-min Rain = 0
KDO1 132143Z 33007KT 19/M03 A2984 RMK A01 T01861030  RH  023%=      5-min Rain = 0
KDO1 132144Z 32006KT 19/M03 A2984 RMK A01 T01871027  RH  023%=      5-min Rain = 0
KDO1 132145Z 32007KT 19/M03 A2984 RMK A01 T01881026  RH  023%=      5-min Rain = 0
KDO1 132146Z 32009KT 19/M03 A2983 RMK A01 T01891028  RH  023%=      5-min Rain = 0
KDO1 132147Z 32007KT 19/M03 A2983 RMK A01 T01881028  RH  023%=      5-min Rain = 0
KDO1 132148Z 33007KT 19/M03 A2983 RMK A01 T01871028  RH  023%=      5-min Rain = 0
KDO1 132149Z 32008KT 19/M03 A2983 RMK A01 T01871027  RH  023%=      5-min Rain = 0
KDO1 132150Z 32008KT 19/M03 A2983 RMK A01 T01871028  RH  023%=      5-min Rain = 0
KDO1 132151Z 33010KT 19/M03 A2983 RMK A01 T01871029  RH  023%=      5-min Rain = 0
KDO1 132152Z 32009KT 19/M03 A2983 RMK A01 T01871031  RH  023%=      5-min Rain = 0
KDO1 132153Z 31010KT 19/M03 A2982 RMK A01 T01861031  RH  023%=      5-min Rain = 0
KDO1 132154Z 32012KT 19/M03 A2982 RMK A01 T01861031  RH  023%=      5-min Rain = 0
KDO1 132155Z 32010KT 19/M03 A2982 RMK A01 T01861031  RH  023%=      5-min Rain = 0
KDO1 132156Z 31010KT 19/M03 A2982 RMK A01 T01851032  RH  023%=      5-min Rain = 0
KDO1 132157Z 31009KT 18/M03 A2982 RMK A01 T01841032  RH  023%=      5-min Rain = 0
KDO1 132158Z 31008KT 18/M03 A2982 RMK A01 T01841031  RH  023%=      5-min Rain = 0
KDO1 132159Z 31008KT 18/M03 A2983 RMK A01 T01841031  RH  023%=      5-min Rain = 0
KDO1 132200Z 32007KT 18/M03 A2983 RMK A01 T01841030  RH  023%=      5-min Rain = 0
KDO1 132201Z 32008KT 19/M03 A2983 RMK A01 T01851030  RH  023%=      5-min Rain = 0
KDO1 132202Z 32010KT 19/M03 A2983 RMK A01 T01851029  RH  023%=      5-min Rain = 0
KDO1 132203Z 33009KT 19/M03 A2983 RMK A01 T01851029  RH  023%=      5-min Rain = 0
KDO1 132204Z 33008KT 19/M03 A2983 RMK A01 T01851028  RH  023%=      5-min Rain = 0
KDO1 132205Z 33008KT 19/M03 A2983 RMK A01 T01851028  RH  023%=      5-min Rain = 0
KDO1 132206Z 32009KT 19/M03 A2983 RMK A01 T01861027  RH  023%=      5-min Rain = 0
KDO1 132207Z 32009KT 19/M03 A2983 RMK A01 T01861029  RH  023%=      5-min Rain = 0
KDO1 132208Z 32006KT 19/M03 A2983 RMK A01 T01861027  RH  023%=      5-min Rain = 0
KDO1 132209Z 32007KT 19/M03 A2983 RMK A01 T01851027  RH  023%=      5-min Rain = 0
KDO1 132210Z 31008KT 19/M03 A2983 RMK A01 T01851027  RH  023%=      5-min Rain = 0
KDO1 132211Z 31008KT 19/M03 A2983 RMK A01 T01851028  RH  023%=      5-min Rain = 0
KDO1 132212Z 32009KT 19/M03 A2983 RMK A01 T01851028  RH  023%=      5-min Rain = 0
KDO1 132213Z 31008KT 18/M03 A2983 RMK A01 T01841028  RH  023%=      5-min Rain = 0
KDO1 132214Z 31009KT 18/M03 A2983 RMK A01 T01841028  RH  024%=      5-min Rain = 0
KDO1 132215Z 31006KT 18/M03 A2983 RMK A01 T01831028  RH  024%=      5-min Rain = 0
KDO1 132216Z 32007KT 18/M03 A2983 RMK A01 T01831027  RH  024%=      5-min Rain = 0
KDO1 132217Z 33008KT 18/M03 A2983 RMK A01 T01831028  RH  024%=      5-min Rain = 0
KDO1 132218Z 33008KT 18/M03 A2983 RMK A01 T01831029  RH  024%=      5-min Rain = 0
KDO1 132219Z 33009KT 18/M03 A2983 RMK A01 T01831028  RH  024%=      5-min Rain = 0
KDO1 132220Z 34008KT 18/M03 A2983 RMK A01 T01831028  RH  024%=      5-min Rain = 0
KDO1 132221Z 33007KT 18/M03 A2983 RMK A01 T01831028  RH  024%=      5-min Rain = 0
KDO1 132222Z 32006KT 18/M03 A2983 RMK A01 T01831026  RH  024%=      5-min Rain = 0
KDO1 132223Z 32007KT 18/M03 A2983 RMK A01 T01831026  RH  024%=      5-min Rain = 0
KDO1 132224Z 32007KT 18/M03 A2983 RMK A01 T01831028  RH  024%=      5-min Rain = 0
KDO1 132225Z 32008KT 18/M03 A2983 RMK A01 T01831028  RH  024%=      5-min Rain = 0
KDO1 132226Z 32010KT 18/M03 A2983 RMK A01 T01831029  RH  023%=      5-min Rain = 0
KDO1 132227Z 32009KT 18/M03 A2983 RMK A01 T01821030  RH  023%=      5-min Rain = 0
KDO1 132228Z 33007KT 18/M03 A2983 RMK A01 T01821030  RH  023%=      5-min Rain = 0
KDO1 132229Z 33009KT 18/M03 A2983 RMK A01 T01821030  RH  023%=      5-min Rain = 0
KDO1 132230Z 33008KT 18/M03 A2983 RMK A01 T01821031  RH  023%=      5-min Rain = 0
KDO1 132231Z 33008KT 18/M03 A2984 RMK A01 T01811031  RH  023%=      5-min Rain = 0
KDO1 132232Z 33008KT 18/M03 A2983 RMK A01 T01811032  RH  023%=      5-min Rain = 0
KDO1 132233Z 32009KT 18/M03 A2983 RMK A01 T01811032  RH  023%=      5-min Rain = 0
KDO1 132234Z 33007KT 18/M03 A2983 RMK A01 T01811032  RH  023%=      5-min Rain = 0
KDO1 132235Z 34008KT 18/M03 A2983 RMK A01 T01801031  RH  024%=      5-min Rain = 0
KDO1 132236Z 33008KT 18/M03 A2983 RMK A01 T01801031  RH  024%=      5-min Rain = 0
KDO1 132237Z 34008KT 18/M03 A2984 RMK A01 T01801031  RH  024%=      5-min Rain = 0
KDO1 132238Z 34008KT 18/M03 A2984 RMK A01 T01801032  RH  024%=      5-min Rain = 0
KDO1 132239Z 34006KT 18/M03 A2983 RMK A01 T01801031  RH  024%=      5-min Rain = 0
KDO1 132240Z 34006KT 18/M03 A2984 RMK A01 T01791030  RH  024%=      5-min Rain = 0
KDO1 132241Z 35005KT 18/M03 A2984 RMK A01 T01781030  RH  024%=      5-min Rain = 0
KDO1 132242Z 36006KT 18/M03 A2984 RMK A01 T01781029  RH  024%=      5-min Rain = 0
KDO1 132243Z 35005KT 18/M03 A2984 RMK A01 T01781029  RH  024%=      5-min Rain = 0
KDO1 132244Z 36006KT 18/M03 A2984 RMK A01 T01771029  RH  024%=      5-min Rain = 0
KDO1 132245Z 36005KT 18/M03 A2984 RMK A01 T01771029  RH  024%=      5-min Rain = 0
KDO1 132246Z 35005KT 18/M03 A2984 RMK A01 T01771029  RH  024%=      5-min Rain = 0
KDO1 132247Z 36005KT 18/M03 A2984 RMK A01 T01761029  RH  025%=      5-min Rain = 0
KDO1 132248Z 35005KT 18/M03 A2984 RMK A01 T01761029  RH  025%=      5-min Rain = 0
KDO1 132249Z 35005KT 18/M03 A2984 RMK A01 T01751029  RH  025%=      5-min Rain = 0
KDO1 132250Z 35005KT 17/M03 A2984 RMK A01 T01741029  RH  025%=      5-min Rain = 0
KDO1 132251Z 35005KT 17/M03 A2985 RMK A01 T01741028  RH  025%=      5-min Rain = 0
KDO1 132252Z 35004KT 17/M03 A2985 RMK A01 T01741028  RH  025%=      5-min Rain = 0
KDO1 132253Z 36005KT 17/M03 A2985 RMK A01 T01731028  RH  025%=      5-min Rain = 0
KDO1 132254Z 35006KT 17/M03 A2985 RMK A01 T01721028  RH  025%=      5-min Rain = 0
KDO1 132255Z 36006KT 17/M03 A2985 RMK A01 T01711029  RH  025%=      5-min Rain = 0
KDO1 132256Z 35006KT 17/M03 A2985 RMK A01 T01701029  RH  026%=      5-min Rain = 0
KDO1 132257Z 35006KT 17/M03 A2985 RMK A01 T01701028  RH  026%=      5-min Rain = 0
KDO1 132258Z 35005KT 17/M03 A2985 RMK A01 T01691028  RH  026%=      5-min Rain = 0
KDO1 132259Z 35006KT 17/M03 A2985 RMK A01 T01681028  RH  026%=      5-min Rain = 0
KDO1 132300Z 35005KT 17/M03 A2985 RMK A01 T01671028  RH  026%=      5-min Rain = 0
KDO1 132301Z 35005KT 17/M03 A2985 RMK A01 T01661028  RH  026%=      5-min Rain = 0
KDO1 132302Z 34006KT 17/M03 A2985 RMK A01 T01651028  RH  026%=      5-min Rain = 0
KDO1 132303Z 35005KT 17/M03 A2985 RMK A01 T01651028  RH  027%=      5-min Rain = 0
KDO1 132304Z 34006KT 16/M03 A2985 RMK A01 T01641029  RH  026%=      5-min Rain = 0
KDO1 132305Z 34006KT 16/M03 A2985 RMK A01 T01631029  RH  027%=      5-min Rain = 0
KDO1 132306Z 34006KT 16/M03 A2985 RMK A01 T01631030  RH  027%=      5-min Rain = 0
KDO1 132307Z 34005KT 16/M03 A2985 RMK A01 T01611030  RH  027%=      5-min Rain = 0
KDO1 132308Z 34005KT 16/M03 A2985 RMK A01 T01611030  RH  027%=      5-min Rain = 0
KDO1 132309Z 34005KT 16/M03 A2985 RMK A01 T01601030  RH  027%=      5-min Rain = 0
KDO1 132310Z 34005KT 16/M03 A2985 RMK A01 T01591030  RH  027%=      5-min Rain = 0
KDO1 132311Z 34004KT 16/M03 A2985 RMK A01 T01581030  RH  027%=      5-min Rain = 0
KDO1 132312Z 33004KT 16/M03 A2985 RMK A01 T01571030  RH  028%=      5-min Rain = 0
KDO1 132313Z 34005KT 16/M03 A2985 RMK A01 T01561030  RH  028%=      5-min Rain = 0
KDO1 132314Z 34005KT 16/M03 A2985 RMK A01 T01551031  RH  028%=      5-min Rain = 0
KDO1 132315Z 33005KT 15/M03 A2984 RMK A01 T01541031  RH  028%=      5-min Rain = 0
KDO1 132316Z 33005KT 15/M03 A2984 RMK A01 T01531031  RH  028%=      5-min Rain = 0
KDO1 132317Z 33005KT 15/M03 A2984 RMK A01 T01521031  RH  028%=      5-min Rain = 0
KDO1 132318Z 33005KT 15/M03 A2984 RMK A01 T01511032  RH  028%=      5-min Rain = 0
KDO1 132319Z 33005KT 15/M03 A2984 RMK A01 T01501032  RH  028%=      5-min Rain = 0
KDO1 132320Z 33004KT 15/M03 A2984 RMK A01 T01501032  RH  028%=      5-min Rain = 0
KDO1 132321Z 33005KT 15/M03 A2984 RMK A01 T01491032  RH  028%=      5-min Rain = 0
KDO1 132322Z 33005KT 15/M03 A2984 RMK A01 T01481032  RH  029%=      5-min Rain = 0
KDO1 132323Z 33005KT 15/M03 A2984 RMK A01 T01481032  RH  029%=      5-min Rain = 0
KDO1 132324Z 33005KT 15/M03 A2984 RMK A01 T01471032  RH  029%=      5-min Rain = 0
KDO1 132325Z 33005KT 15/M03 A2984 RMK A01 T01461032  RH  029%=      5-min Rain = 0
KDO1 132326Z 33005KT 15/M03 A2984 RMK A01 T01461033  RH  029%=      5-min Rain = 0
KDO1 132327Z 33005KT 15/M03 A2984 RMK A01 T01451033  RH  029%=      5-min Rain = 0
KDO1 132328Z 33005KT 14/M03 A2984 RMK A01 T01441033  RH  029%=      5-min Rain = 0
KDO1 132329Z 33005KT 14/M03 A2985 RMK A01 T01431033  RH  029%=      5-min Rain = 0
KDO1 132330Z 33005KT 14/M03 A2985 RMK A01 T01421033  RH  030%=      5-min Rain = 0
KDO1 132331Z 33005KT 14/M03 A2985 RMK A01 T01411033  RH  030%=      5-min Rain = 0
KDO1 132332Z 34005KT 14/M03 A2985 RMK A01 T01401033  RH  030%=      5-min Rain = 0
KDO1 132333Z 34005KT 14/M03 A2985 RMK A01 T01391033  RH  030%=      5-min Rain = 0
KDO1 132334Z 34005KT 14/M03 A2985 RMK A01 T01391033  RH  030%=      5-min Rain = 0
KDO1 132335Z 34005KT 14/M03 A2985 RMK A01 T01391033  RH  030%=      5-min Rain = 0
KDO1 132336Z 34005KT 14/M03 A2985 RMK A01 T01391033  RH  030%=      5-min Rain = 0
KDO1 132337Z 34005KT 14/M03 A2985 RMK A01 T01381033  RH  030%=      5-min Rain = 0
KDO1 132338Z 33005KT 14/M03 A2985 RMK A01 T01381033  RH  030%=      5-min Rain = 0
KDO1 132339Z 33005KT 14/M03 A2986 RMK A01 T01381032  RH  031%=      5-min Rain = 0
KDO1 132340Z 34005KT 14/M03 A2986 RMK A01 T01371032  RH  031%=      5-min Rain = 0
KDO1 132341Z 34005KT 14/M03 A2986 RMK A01 T01361033  RH  031%=      5-min Rain = 0
KDO1 132342Z 34005KT 14/M03 A2986 RMK A01 T01351032  RH  031%=      5-min Rain = 0
KDO1 132343Z 34005KT 14/M03 A2986 RMK A01 T01351032  RH  031%=      5-min Rain = 0
KDO1 132344Z 35005KT 13/M03 A2986 RMK A01 T01341032  RH  031%=      5-min Rain = 0
KDO1 132345Z 35006KT 13/M03 A2986 RMK A01 T01331032  RH  032%=      5-min Rain = 0
KDO1 132346Z 35006KT 13/M03 A2986 RMK A01 T01311033  RH  032%=      5-min Rain = 0
KDO1 132347Z 35005KT 13/M03 A2986 RMK A01 T01301033  RH  032%=      5-min Rain = 0
KDO1 132348Z 35005KT 13/M03 A2986 RMK A01 T01291033  RH  032%=      5-min Rain = 0
KDO1 132349Z 35005KT 13/M03 A2986 RMK A01 T01271033  RH  033%=      5-min Rain = 0
KDO1 132350Z 35005KT 13/M03 A2986 RMK A01 T01261033  RH  033%=      5-min Rain = 0
KDO1 132351Z 35005KT 13/M03 A2986 RMK A01 T01251033  RH  033%=      5-min Rain = 0
KDO1 132352Z 35005KT 13/M03 A2986 RMK A01 T01251032  RH  033%=      5-min Rain = 0
KDO1 132353Z 36006KT 13/M03 A2986 RMK A01 T01251032  RH  033%=      5-min Rain = 0
KDO1 132354Z 35006KT 12/M03 A2986 RMK A01 T01241032  RH  033%=      5-min Rain = 0
KDO1 132355Z 35006KT 13/M03 A2986 RMK A01 T01251031  RH  033%=      5-min Rain = 0
KDO1 132356Z 35006KT 12/M03 A2986 RMK A01 T01241032  RH  034%=      5-min Rain = 0
KDO1 132357Z 35006KT 12/M03 A2986 RMK A01 T01241031  RH  034%=      5-min Rain = 0
KDO1 132358Z 35006KT 12/M03 A2986 RMK A01 T01241031  RH  034%=      5-min Rain = 0
KDO1 132359Z 35006KT 12/M03 A2986 RMK A01 T01241031  RH  034%=      5-min Rain = 0
KDO1 140000Z 36006KT 12/M03 A2986 RMK A01 T01231031  RH  034%=      5-min Rain = 0
KDO1 140001Z 35006KT 12/M03 A2987 RMK A01 T01221031  RH  034%=      5-min Rain = 0
KDO1 140002Z 35006KT 12/M03 A2987 RMK A01 T01211031  RH  034%=      5-min Rain = 0
KDO1 140003Z 35007KT 12/M03 A2987 RMK A01 T01191031  RH  035%=      5-min Rain = 0
KDO1 140004Z 35007KT 12/M03 A2987 RMK A01 T01181031  RH  035%=      5-min Rain = 0
KDO1 140005Z 35007KT 12/M03 A2987 RMK A01 T01171030  RH  035%=      5-min Rain = 0
KDO1 140006Z 35007KT 12/M03 A2987 RMK A01 T01171030  RH  036%=      5-min Rain = 0
KDO1 140007Z 35007KT 12/M03 A2987 RMK A01 T01161030  RH  036%=      5-min Rain = 0
KDO1 140008Z 36007KT 12/M03 A2987 RMK A01 T01151029  RH  036%=      5-min Rain = 0
KDO1 140009Z 35007KT 11/M03 A2987 RMK A01 T01141029  RH  037%=      5-min Rain = 0
KDO1 140010Z 35007KT 11/M03 A2987 RMK A01 T01141028  RH  037%=      5-min Rain = 0
KDO1 140011Z 35007KT 11/M03 A2987 RMK A01 T01141028  RH  037%=      5-min Rain = 0
KDO1 140012Z 35007KT 11/M03 A2987 RMK A01 T01141028  RH  037%=      5-min Rain = 0
KDO1 140013Z 35007KT 11/M03 A2987 RMK A01 T01141028  RH  037%=      5-min Rain = 0
KDO1 140014Z 35007KT 11/M03 A2987 RMK A01 T01141029  RH  037%=      5-min Rain = 0
KDO1 140015Z 35006KT 11/M03 A2987 RMK A01 T01141028  RH  037%=      5-min Rain = 0
KDO1 140016Z 35007KT 11/M03 A2987 RMK A01 T01141028  RH  037%=      5-min Rain = 0
KDO1 140017Z 35006KT 11/M03 A2987 RMK A01 T01141029  RH  037%=      5-min Rain = 0
KDO1 140018Z 35006KT 11/M03 A2987 RMK A01 T01141029  RH  037%=      5-min Rain = 0
KDO1 140019Z 35006KT 11/M03 A2987 RMK A01 T01141029  RH  037%=      5-min Rain = 0
KDO1 140020Z 35006KT 11/M03 A2987 RMK A01 T01141029  RH  037%=      5-min Rain = 0
KDO1 140021Z 35006KT 11/M03 A2987 RMK A01 T01141029  RH  037%=      5-min Rain = 0
KDO1 140022Z 35006KT 11/M03 A2987 RMK A01 T01131028  RH  037%=      5-min Rain = 0
KDO1 140023Z 35006KT 11/M03 A2987 RMK A01 T01121029  RH  037%=      5-min Rain = 0
KDO1 140024Z 35006KT 11/M03 A2987 RMK A01 T01111029  RH  038%=      5-min Rain = 0
KDO1 140025Z 35006KT 11/M03 A2987 RMK A01 T01111028  RH  038%=      5-min Rain = 0
KDO1 140026Z 35006KT 11/M03 A2987 RMK A01 T01101028  RH  038%=      5-min Rain = 0
KDO1 140027Z 35006KT 11/M03 A2987 RMK A01 T01091028  RH  038%=      5-min Rain = 0
KDO1 140028Z 35006KT 11/M03 A2987 RMK A01 T01091028  RH  038%=      5-min Rain = 0
KDO1 140029Z 35006KT 11/M03 A2987 RMK A01 T01091028  RH  038%=      5-min Rain = 0
KDO1 140030Z 35006KT 11/M03 A2987 RMK A01 T01091028  RH  038%=      5-min Rain = 0
KDO1 140031Z 35006KT 11/M03 A2987 RMK A01 T01091028  RH  038%=      5-min Rain = 0
KDO1 140032Z 35007KT 11/M03 A2987 RMK A01 T01091028  RH  038%=      5-min Rain = 0
KDO1 140033Z 35006KT 11/M03 A2987 RMK A01 T01091028  RH  038%=      5-min Rain = 0
KDO1 140034Z 35006KT 11/M03 A2987 RMK A01 T01091028  RH  038%=      5-min Rain = 0
KDO1 140035Z 35007KT 11/M03 A2987 RMK A01 T01091028  RH  038%=      5-min Rain = 0
KDO1 140036Z 35007KT 11/M03 A2987 RMK A01 T01091028  RH  038%=      5-min Rain = 0
KDO1 140037Z 35007KT 11/M03 A2987 RMK A01 T01081028  RH  038%=      5-min Rain = 0
KDO1 140038Z 35007KT 11/M03 A2987 RMK A01 T01081028  RH  039%=      5-min Rain = 0
KDO1 140039Z 35007KT 11/M03 A2987 RMK A01 T01071028  RH  039%=      5-min Rain = 0
KDO1 140040Z 35007KT 11/M03 A2987 RMK A01 T01071027  RH  039%=      5-min Rain = 0
KDO1 140041Z 36006KT 11/M03 A2987 RMK A01 T01061027  RH  039%=      5-min Rain = 0
KDO1 140042Z 36007KT 11/M03 A2987 RMK A01 T01051027  RH  039%=      5-min Rain = 0
KDO1 140043Z 36007KT 11/M03 A2987 RMK A01 T01051027  RH  040%=      5-min Rain = 0
KDO1 140044Z 36007KT 10/M03 A2987 RMK A01 T01041027  RH  040%=      5-min Rain = 0
KDO1 140045Z 36006KT 10/M03 A2987 RMK A01 T01031027  RH  040%=      5-min Rain = 0
KDO1 140046Z 36006KT 10/M03 A2987 RMK A01 T01031028  RH  040%=      5-min Rain = 0
KDO1 140047Z 00006KT 10/M03 A2987 RMK A01 T01021028  RH  040%=      5-min Rain = 0
KDO1 140048Z 01006KT 10/M03 A2987 RMK A01 T01021028  RH  040%=      5-min Rain = 0
KDO1 140049Z 01005KT 10/M03 A2987 RMK A01 T01011028  RH  040%=      5-min Rain = 0
KDO1 140050Z 01005KT 10/M03 A2987 RMK A01 T01011028  RH  040%=      5-min Rain = 0
KDO1 140051Z 01004KT 10/M03 A2986 RMK A01 T00991029  RH  040%=      5-min Rain = 0
KDO1 140052Z 01005KT 10/M03 A2986 RMK A01 T00981029  RH  041%=      5-min Rain = 0
KDO1 140053Z 01005KT 10/M03 A2986 RMK A01 T00961029  RH  041%=      5-min Rain = 0
KDO1 140054Z 00005KT 10/M03 A2987 RMK A01 T00951029  RH  042%=      5-min Rain = 0
KDO1 140055Z 36006KT 09/M03 A2987 RMK A01 T00941029  RH  042%=      5-min Rain = 0
KDO1 140056Z 35006KT 09/M03 A2987 RMK A01 T00941029  RH  042%=      5-min Rain = 0
KDO1 140057Z 35006KT 09/M03 A2988 RMK A01 T00931029  RH  042%=      5-min Rain = 0
KDO1 140058Z 35006KT 09/M03 A2988 RMK A01 T00921029  RH  042%=      5-min Rain = 0
KDO1 140059Z 35006KT 09/M03 A2988 RMK A01 T00911029  RH  043%=      5-min Rain = 0
KDO1 140100Z 35006KT 09/M03 A2988 RMK A01 T00901029  RH  043%=      5-min Rain = 0
KDO1 140101Z 35007KT 09/M03 A2988 RMK A01 T00891029  RH  043%=      5-min Rain = 0
KDO1 140102Z 35006KT 09/M03 A2988 RMK A01 T00891030  RH  043%=      5-min Rain = 0
KDO1 140103Z 35007KT 09/M03 A2988 RMK A01 T00891030  RH  043%=      5-min Rain = 0
KDO1 140104Z 35007KT 09/M03 A2988 RMK A01 T00891029  RH  043%=      5-min Rain = 0
KDO1 140105Z 35007KT 09/M03 A2988 RMK A01 T00881029  RH  044%=      5-min Rain = 0
KDO1 140106Z 35007KT 09/M03 A2988 RMK A01 T00881029  RH  044%=      5-min Rain = 0
KDO1 140107Z 36007KT 09/M03 A2988 RMK A01 T00871029  RH  044%=      5-min Rain = 0
KDO1 140108Z 35007KT 09/M03 A2988 RMK A01 T00871028  RH  044%=      5-min Rain = 0
KDO1 140109Z 35007KT 09/M03 A2988 RMK A01 T00871028  RH  044%=      5-min Rain = 0
KDO1 140110Z 36007KT 09/M03 A2988 RMK A01 T00871028  RH  044%=      5-min Rain = 0
KDO1 140111Z 35007KT 09/M03 A2988 RMK A01 T00881028  RH  044%=      5-min Rain = 0
KDO1 140112Z 36007KT 09/M03 A2988 RMK A01 T00881028  RH  044%=      5-min Rain = 0
KDO1 140113Z 36008KT 09/M03 A2988 RMK A01 T00881028  RH  044%=      5-min Rain = 0
KDO1 140114Z 35008KT 09/M03 A2988 RMK A01 T00881028  RH  044%=      5-min Rain = 0
KDO1 140115Z 35008KT 09/M03 A2988 RMK A01 T00881028  RH  044%=      5-min Rain = 0
KDO1 140116Z 36008KT 09/M03 A2988 RMK A01 T00871028  RH  044%=      5-min Rain = 0
KDO1 140117Z 35008KT 09/M03 A2988 RMK A01 T00861027  RH  045%=      5-min Rain = 0
KDO1 140118Z 35007KT 09/M03 A2988 RMK A01 T00851028  RH  045%=      5-min Rain = 0
KDO1 140119Z 35007KT 09/M03 A2988 RMK A01 T00851028  RH  045%=      5-min Rain = 0
KDO1 140120Z 35007KT 08/M03 A2988 RMK A01 T00841027  RH  045%=      5-min Rain = 0
KDO1 140121Z 35007KT 08/M03 A2988 RMK A01 T00831027  RH  046%=      5-min Rain = 0
KDO1 140122Z 35006KT 08/M03 A2989 RMK A01 T00831027  RH  046%=      5-min Rain = 0
KDO1 140123Z 34007KT 08/M03 A2989 RMK A01 T00821027  RH  046%=      5-min Rain = 0
KDO1 140124Z 34007KT 08/M03 A2989 RMK A01 T00821027  RH  046%=      5-min Rain = 0
KDO1 140125Z 34007KT 08/M03 A2989 RMK A01 T00811027  RH  046%=      5-min Rain = 0
KDO1 140126Z 35007KT 08/M03 A2989 RMK A01 T00811027  RH  047%=      5-min Rain = 0
KDO1 140127Z 35007KT 08/M03 A2989 RMK A01 T00811027  RH  047%=      5-min Rain = 0
KDO1 140128Z 34007KT 08/M03 A2989 RMK A01 T00821026  RH  047%=      5-min Rain = 0
KDO1 140129Z 34007KT 08/M03 A2989 RMK A01 T00821026  RH  046%=      5-min Rain = 0
KDO1 140130Z 35007KT 08/M03 A2989 RMK A01 T00831025  RH  046%=      5-min Rain = 0
KDO1 140131Z 35007KT 08/M03 A2989 RMK A01 T00821026  RH  046%=      5-min Rain = 0
KDO1 140132Z 34008KT 08/M03 A2989 RMK A01 T00831026  RH  046%=      5-min Rain = 0
KDO1 140133Z 34008KT 08/M03 A2989 RMK A01 T00831025  RH  046%=      5-min Rain = 0
KDO1 140134Z 34008KT 08/M03 A2989 RMK A01 T00821025  RH  047%=      5-min Rain = 0
KDO1 140135Z 34007KT 08/M03 A2989 RMK A01 T00821025  RH  047%=      5-min Rain = 0
KDO1 140136Z 34008KT 08/M03 A2989 RMK A01 T00821025  RH  047%=      5-min Rain = 0
KDO1 140137Z 34008KT 08/M02 A299 RMK A01 T00831024  RH  047%=      5-min Rain = 0
KDO1 140138Z 35008KT 08/M02 A299 RMK A01 T00821024  RH  047%=      5-min Rain = 0
KDO1 140139Z 35008KT 08/M02 A299 RMK A01 T00831023  RH  047%=      5-min Rain = 0
KDO1 140140Z 35008KT 08/M02 A299 RMK A01 T00831023  RH  047%=      5-min Rain = 0
KDO1 140141Z 35008KT 08/M02 A2989 RMK A01 T00831023  RH  047%=      5-min Rain = 0
KDO1 140142Z 36008KT 09/M02 A2989 RMK A01 T00851023  RH  047%=      5-min Rain = 0
KDO1 140143Z 36009KT 09/M02 A2989 RMK A01 T00871023  RH  046%=      5-min Rain = 0
KDO1 140144Z 36009KT 09/M02 A2989 RMK A01 T00871023  RH  046%=      5-min Rain = 0
KDO1 140145Z 36009KT 09/M02 A2989 RMK A01 T00871023  RH  046%=      5-min Rain = 0
KDO1 140146Z 35008KT 09/M02 A2989 RMK A01 T00881023  RH  046%=      5-min Rain = 0
KDO1 140147Z 36008KT 09/M02 A2989 RMK A01 T00881024  RH  045%=      5-min Rain = 0
KDO1 140148Z 00009KT 09/M02 A299 RMK A01 T00881024  RH  045%=      5-min Rain = 0
KDO1 140149Z 00009KT 09/M02 A299 RMK A01 T00871024  RH  046%=      5-min Rain = 0
KDO1 140150Z 36009KT 09/M02 A299 RMK A01 T00861024  RH  046%=      5-min Rain = 0
KDO1 140151Z 36008KT 09/M02 A299 RMK A01 T00851024  RH  046%=      5-min Rain = 0
KDO1 140152Z 35008KT 08/M02 A299 RMK A01 T00841024  RH  047%=      5-min Rain = 0
KDO1 140153Z 35008KT 08/M02 A299 RMK A01 T00841024  RH  047%=      5-min Rain = 0
KDO1 140154Z 35008KT 08/M02 A299 RMK A01 T00831024  RH  047%=      5-min Rain = 0
KDO1 140155Z 35008KT 08/M02 A299 RMK A01 T00831024  RH  047%=      5-min Rain = 0
KDO1 140156Z 35008KT 08/M02 A299 RMK A01 T00831024  RH  047%=      5-min Rain = 0
KDO1 140157Z 36008KT 08/M02 A299 RMK A01 T00821024  RH  047%=      5-min Rain = 0
KDO1 140158Z 00008KT 08/M02 A299 RMK A01 T00831024  RH  047%=      5-min Rain = 0
KDO1 140159Z 36008KT 08/M02 A299 RMK A01 T00831024  RH  047%=      5-min Rain = 0
KDO1 140200Z 36007KT 08/M02 A299 RMK A01 T00841024  RH  047%=      5-min Rain = 0
KDO1 140201Z 36007KT 08/M02 A299 RMK A01 T00841024  RH  046%=      5-min Rain = 0
KDO1 140202Z 35007KT 08/M02 A2991 RMK A01 T00841024  RH  046%=      5-min Rain = 0
KDO1 140203Z 35007KT 08/M02 A2991 RMK A01 T00831024  RH  047%=      5-min Rain = 0
KDO1 140204Z 35007KT 08/M02 A2991 RMK A01 T00821024  RH  047%=      5-min Rain = 0
KDO1 140205Z 35007KT 08/M02 A2991 RMK A01 T00811024  RH  047%=      5-min Rain = 0
KDO1 140206Z 35008KT 08/M03 A2991 RMK A01 T00801025  RH  047%=      5-min Rain = 0
KDO1 140207Z 35008KT 08/M03 A2991 RMK A01 T00801025  RH  048%=      5-min Rain = 0
KDO1 140208Z 35008KT 08/M02 A2991 RMK A01 T00801024  RH  048%=      5-min Rain = 0
KDO1 140209Z 35008KT 08/M02 A2991 RMK A01 T00801024  RH  048%=      5-min Rain = 0
KDO1 140210Z 35008KT 08/M02 A2991 RMK A01 T00801024  RH  048%=      5-min Rain = 0
KDO1 140211Z 35008KT 08/M02 A2991 RMK A01 T00801024  RH  048%=      5-min Rain = 0
KDO1 140212Z 35008KT 08/M02 A299 RMK A01 T00801024  RH  048%=      5-min Rain = 0
KDO1 140213Z 35008KT 08/M02 A299 RMK A01 T00801024  RH  048%=      5-min Rain = 0
KDO1 140214Z 36008KT 08/M02 A299 RMK A01 T00801024  RH  048%=      5-min Rain = 0
KDO1 140215Z 36008KT 08/M02 A299 RMK A01 T00791024  RH  048%=      5-min Rain = 0
KDO1 140216Z 36008KT 08/M02 A299 RMK A01 T00791024  RH  048%=      5-min Rain = 0
KDO1 140217Z 35008KT 08/M02 A299 RMK A01 T00781024  RH  048%=      5-min Rain = 0
KDO1 140218Z 35008KT 08/M02 A299 RMK A01 T00781024  RH  048%=      5-min Rain = 0
KDO1 140219Z 35008KT 08/M02 A299 RMK A01 T00781024  RH  049%=      5-min Rain = 0
KDO1 140220Z 35008KT 08/M02 A299 RMK A01 T00771024  RH  049%=      5-min Rain = 0
KDO1 140221Z 35008KT 08/M02 A299 RMK A01 T00761024  RH  049%=      5-min Rain = 0
KDO1 140222Z 35009KT 08/M02 A299 RMK A01 T00761024  RH  049%=      5-min Rain = 0
KDO1 140223Z 35008KT 08/M02 A299 RMK A01 T00751024  RH  049%=      5-min Rain = 0
KDO1 140224Z 35008KT 07/M02 A299 RMK A01 T00741024  RH  050%=      5-min Rain = 0
KDO1 140225Z 35009KT 07/M02 A299 RMK A01 T00731024  RH  050%=      5-min Rain = 0
KDO1 140226Z 35009KT 07/M02 A299 RMK A01 T00731024  RH  050%=      5-min Rain = 0
KDO1 140227Z 35009KT 07/M02 A299 RMK A01 T00721024  RH  050%=      5-min Rain = 0
KDO1 140228Z 35009KT 07/M02 A299 RMK A01 T00721024  RH  050%=      5-min Rain = 0
KDO1 140229Z 35009KT 07/M02 A299 RMK A01 T00721024  RH  051%=      5-min Rain = 0
KDO1 140230Z 35009KT 07/M02 A299 RMK A01 T00721024  RH  051%=      5-min Rain = 0
KDO1 140231Z 35008KT 07/M02 A299 RMK A01 T00721023  RH  051%=      5-min Rain = 0
KDO1 140232Z 35008KT 07/M02 A299 RMK A01 T00721024  RH  051%=      5-min Rain = 0
KDO1 140233Z 35008KT 07/M02 A299 RMK A01 T00721024  RH  051%=      5-min Rain = 0
KDO1 140234Z 35008KT 07/M02 A299 RMK A01 T00721023  RH  051%=      5-min Rain = 0
KDO1 140235Z 34008KT 07/M02 A299 RMK A01 T00721023  RH  051%=      5-min Rain = 0
KDO1 140236Z 35008KT 07/M02 A299 RMK A01 T00721023  RH  051%=      5-min Rain = 0
KDO1 140237Z 35008KT 07/M02 A299 RMK A01 T00721023  RH  051%=      5-min Rain = 0
KDO1 140238Z 34008KT 07/M02 A299 RMK A01 T00721023  RH  051%=      5-min Rain = 0
KDO1 140239Z 35008KT 07/M02 A299 RMK A01 T00731023  RH  051%=      5-min Rain = 0
KDO1 140240Z 35009KT 07/M02 A299 RMK A01 T00731023  RH  050%=      5-min Rain = 0
KDO1 140241Z 35009KT 07/M02 A299 RMK A01 T00731023  RH  050%=      5-min Rain = 0
KDO1 140242Z 35009KT 07/M02 A299 RMK A01 T00741023  RH  050%=      5-min Rain = 0
KDO1 140243Z 35009KT 07/M02 A299 RMK A01 T00741023  RH  050%=      5-min Rain = 0
KDO1 140244Z 35009KT 07/M02 A299 RMK A01 T00741023  RH  050%=      5-min Rain = 0
KDO1 140245Z 36009KT 08/M02 A299 RMK A01 T00751023  RH  050%=      5-min Rain = 0
KDO1 140246Z 36009KT 08/M02 A2989 RMK A01 T00751023  RH  050%=      5-min Rain = 0
KDO1 140247Z 36009KT 07/M02 A299 RMK A01 T00741023  RH  050%=      5-min Rain = 0
KDO1 140248Z 36009KT 08/M02 A299 RMK A01 T00751023  RH  050%=      5-min Rain = 0
KDO1 140249Z 35009KT 07/M02 A299 RMK A01 T00741023  RH  050%=      5-min Rain = 0
KDO1 140250Z 35008KT 08/M02 A299 RMK A01 T00751023  RH  050%=      5-min Rain = 0
KDO1 140251Z 35009KT 08/M02 A299 RMK A01 T00751023  RH  050%=      5-min Rain = 0
KDO1 140252Z 35009KT 08/M02 A299 RMK A01 T00751023  RH  050%=      5-min Rain = 0
KDO1 140253Z 35008KT 08/M02 A299 RMK A01 T00751023  RH  050%=      5-min Rain = 0
KDO1 140254Z 35008KT 08/M02 A299 RMK A01 T00751023  RH  050%=      5-min Rain = 0
KDO1 140255Z 35008KT 08/M02 A299 RMK A01 T00751023  RH  050%=      5-min Rain = 0
KDO1 140256Z 35008KT 08/M02 A299 RMK A01 T00751023  RH  050%=      5-min Rain = 0
KDO1 140257Z 35008KT 08/M02 A299 RMK A01 T00751023  RH  050%=      5-min Rain = 0
KDO1 140258Z 35008KT 08/M02 A299 RMK A01 T00751023  RH  050%=      5-min Rain = 0
KDO1 140259Z 35008KT 08/M02 A299 RMK A01 T00751023  RH  050%=      5-min Rain = 0
KDO1 140300Z 35008KT 08/M02 A299 RMK A01 T00751023  RH  050%=      5-min Rain = 0
KDO1 140301Z 34007KT 08/M02 A299 RMK A01 T00761023  RH  050%=      5-min Rain = 0
KDO1 140302Z 35008KT 08/M02 A2991 RMK A01 T00761023  RH  050%=      5-min Rain = 0
KDO1 140303Z 35008KT 08/M02 A2991 RMK A01 T00761023  RH  050%=      5-min Rain = 0
KDO1 140304Z 35008KT 08/M02 A2991 RMK A01 T00751023  RH  050%=      5-min Rain = 0
KDO1 140305Z 35008KT 08/M02 A2991 RMK A01 T00751023  RH  050%=      5-min Rain = 0
KDO1 140306Z 35008KT 07/M02 A2991 RMK A01 T00741024  RH  050%=      5-min Rain = 0
KDO1 140307Z 35008KT 07/M02 A2991 RMK A01 T00741023  RH  050%=      5-min Rain = 0
KDO1 140308Z 35009KT 07/M02 A2991 RMK A01 T00741023  RH  050%=      5-min Rain = 0
KDO1 140309Z 35009KT 07/M02 A2991 RMK A01 T00741023  RH  050%=      5-min Rain = 0
KDO1 140310Z 35008KT 07/M02 A2991 RMK A01 T00741024  RH  050%=      5-min Rain = 0
KDO1 140311Z 35008KT 07/M02 A2991 RMK A01 T00741024  RH  050%=      5-min Rain = 0
KDO1 140312Z 35009KT 07/M02 A2992 RMK A01 T00741024  RH  050%=      5-min Rain = 0
KDO1 140313Z 35008KT 08/M02 A2992 RMK A01 T00751024  RH  050%=      5-min Rain = 0
KDO1 140314Z 35008KT 08/M02 A2992 RMK A01 T00751024  RH  050%=      5-min Rain = 0
KDO1 140315Z 35008KT 08/M02 A2992 RMK A01 T00751024  RH  049%=      5-min Rain = 0
KDO1 140316Z 35008KT 08/M02 A2992 RMK A01 T00751024  RH  049%=      5-min Rain = 0
KDO1 140317Z 35008KT 08/M02 A2992 RMK A01 T00751024  RH  049%=      5-min Rain = 0
KDO1 140318Z 35008KT 08/M02 A2992 RMK A01 T00761024  RH  049%=      5-min Rain = 0
KDO1 140319Z 34008KT 08/M02 A2992 RMK A01 T00761024  RH  049%=      5-min Rain = 0
KDO1 140320Z 35008KT 08/M02 A2992 RMK A01 T00761024  RH  049%=      5-min Rain = 0
KDO1 140321Z 34009KT 08/M02 A2992 RMK A01 T00761024  RH  049%=      5-min Rain = 0
KDO1 140322Z 35009KT 08/M02 A2992 RMK A01 T00771024  RH  049%=      5-min Rain = 0
KDO1 140323Z 35009KT 08/M02 A2992 RMK A01 T00771024  RH  049%=      5-min Rain = 0
KDO1 140324Z 34009KT 08/M02 A2992 RMK A01 T00771024  RH  049%=      5-min Rain = 0
KDO1 140325Z 35008KT 08/M02 A2992 RMK A01 T00771024  RH  049%=      5-min Rain = 0
KDO1 140326Z 35008KT 08/M02 A2992 RMK A01 T00781024  RH  048%=      5-min Rain = 0
KDO1 140327Z 35009KT 08/M02 A2992 RMK A01 T00781024  RH  048%=      5-min Rain = 0
KDO1 140328Z 35008KT 08/M02 A2992 RMK A01 T00791024  RH  048%=      5-min Rain = 0
KDO1 140329Z 35009KT 08/M02 A2992 RMK A01 T00801024  RH  048%=      5-min Rain = 0
KDO1 140330Z 35009KT 08/M02 A2992 RMK A01 T00801024  RH  048%=      5-min Rain = 0
KDO1 140331Z 34009KT 08/M02 A2992 RMK A01 T00801024  RH  048%=      5-min Rain = 0
KDO1 140332Z 35009KT 08/M02 A2992 RMK A01 T00801024  RH  048%=      5-min Rain = 0
KDO1 140333Z 35009KT 08/M02 A2992 RMK A01 T00791024  RH  048%=      5-min Rain = 0
KDO1 140334Z 35009KT 08/M03 A2992 RMK A01 T00791025  RH  048%=      5-min Rain = 0
KDO1 140335Z 35009KT 08/M03 A2992 RMK A01 T00791025  RH  048%=      5-min Rain = 0
KDO1 140336Z 34009KT 08/M03 A2993 RMK A01 T00791025  RH  048%=      5-min Rain = 0
KDO1 140337Z 35009KT 08/M03 A2993 RMK A01 T00801025  RH  048%=      5-min Rain = 0
KDO1 140338Z 35009KT 08/M03 A2993 RMK A01 T00791025  RH  048%=      5-min Rain = 0
KDO1 140339Z 35009KT 08/M03 A2993 RMK A01 T00791025  RH  048%=      5-min Rain = 0
KDO1 140340Z 35009KT 08/M03 A2993 RMK A01 T00791025  RH  048%=      5-min Rain = 0
KDO1 140341Z 35009KT 08/M03 A2992 RMK A01 T00791025  RH  048%=      5-min Rain = 0
KDO1 140342Z 35009KT 08/M03 A2992 RMK A01 T00791025  RH  048%=      5-min Rain = 0
KDO1 140343Z 35009KT 08/M03 A2992 RMK A01 T00791025  RH  048%=      5-min Rain = 0
KDO1 140344Z 35009KT 08/M03 A2992 RMK A01 T00791025  RH  048%=      5-min Rain = 0
KDO1 140345Z 35009KT 08/M03 A2993 RMK A01 T00801025  RH  048%=      5-min Rain = 0
KDO1 140346Z 34009KT 08/M03 A2993 RMK A01 T00801025  RH  048%=      5-min Rain = 0
KDO1 140347Z 35010KT 08/M02 A2993 RMK A01 T00801024  RH  048%=      5-min Rain = 0
KDO1 140348Z 35009KT 08/M03 A2993 RMK A01 T00801025  RH  048%=      5-min Rain = 0
KDO1 140349Z 35009KT 08/M03 A2993 RMK A01 T00801025  RH  048%=      5-min Rain = 0
KDO1 140350Z 35009KT 08/M03 A2993 RMK A01 T00801025  RH  048%=      5-min Rain = 0
KDO1 140351Z 35009KT 08/M03 A2993 RMK A01 T00801025  RH  047%=      5-min Rain = 0
KDO1 140352Z 35009KT 08/M03 A2993 RMK A01 T00811025  RH  047%=      5-min Rain = 0
KDO1 140353Z 35009KT 08/M03 A2992 RMK A01 T00811025  RH  047%=      5-min Rain = 0
KDO1 140354Z 35009KT 08/M03 A2992 RMK A01 T00801025  RH  047%=      5-min Rain = 0
KDO1 140355Z 35009KT 08/M03 A2992 RMK A01 T00801025  RH  048%=      5-min Rain = 0
KDO1 140356Z 35009KT 08/M03 A2992 RMK A01 T00801025  RH  048%=      5-min Rain = 0
KDO1 140357Z 35010KT 08/M03 A2993 RMK A01 T00801025  RH  048%=      5-min Rain = 0
KDO1 140358Z 35010KT 08/M03 A2993 RMK A01 T00791025  RH  048%=      5-min Rain = 0
KDO1 140359Z 34009KT 08/M03 A2993 RMK A01 T00791025  RH  048%=      5-min Rain = 0
KDO1 140400Z 35010KT 08/M03 A2993 RMK A01 T00791025  RH  048%=      5-min Rain = 0
KDO1 140401Z 35009KT 08/M03 A2993 RMK A01 T00791025  RH  048%=      5-min Rain = 0
KDO1 140402Z 34009KT 08/M03 A2993 RMK A01 T00791025  RH  048%=      5-min Rain = 0
KDO1 140403Z 34009KT 08/M03 A2994 RMK A01 T00791025  RH  048%=      5-min Rain = 0
KDO1 140404Z 35009KT 08/M02 A2994 RMK A01 T00791024  RH  048%=      5-min Rain = 0
KDO1 140405Z 35009KT 08/M03 A2994 RMK A01 T00791025  RH  048%=      5-min Rain = 0
KDO1 140406Z 35009KT 08/M03 A2994 RMK A01 T00791025  RH  048%=      5-min Rain = 0
KDO1 140407Z 35009KT 08/M03 A2993 RMK A01 T00791025  RH  048%=      5-min Rain = 0
KDO1 140408Z 34009KT 08/M03 A2994 RMK A01 T00791025  RH  048%=      5-min Rain = 0
KDO1 140409Z 34009KT 08/M03 A2994 RMK A01 T00791025  RH  048%=      5-min Rain = 0
KDO1 140410Z 34009KT 08/M02 A2994 RMK A01 T00801024  RH  048%=      5-min Rain = 0
KDO1 140411Z 35008KT 08/M03 A2994 RMK A01 T00801025  RH  047%=      5-min Rain = 0
KDO1 140412Z 35009KT 08/M02 A2994 RMK A01 T00811024  RH  048%=      5-min Rain = 0
KDO1 140413Z 35008KT 08/M02 A2994 RMK A01 T00811024  RH  048%=      5-min Rain = 0
KDO1 140414Z 34008KT 08/M02 A2994 RMK A01 T00801024  RH  048%=      5-min Rain = 0
KDO1 140415Z 35008KT 08/M02 A2994 RMK A01 T00811024  RH  048%=      5-min Rain = 0
KDO1 140416Z 34008KT 08/M02 A2994 RMK A01 T00811024  RH  047%=      5-min Rain = 0
KDO1 140417Z 34008KT 08/M02 A2994 RMK A01 T00811024  RH  047%=      5-min Rain = 0
KDO1 140418Z 34008KT 08/M02 A2994 RMK A01 T00811024  RH  047%=      5-min Rain = 0
KDO1 140419Z 34009KT 08/M02 A2994 RMK A01 T00821024  RH  047%=      5-min Rain = 0
KDO1 140420Z 35009KT 08/M02 A2994 RMK A01 T00821023  RH  047%=      5-min Rain = 0
KDO1 140421Z 35009KT 08/M02 A2994 RMK A01 T00811024  RH  048%=      5-min Rain = 0
KDO1 140422Z 35009KT 08/M02 A2994 RMK A01 T00811024  RH  048%=      5-min Rain = 0
KDO1 140423Z 35008KT 08/M02 A2994 RMK A01 T00811024  RH  048%=      5-min Rain = 0
KDO1 140424Z 35009KT 08/M02 A2994 RMK A01 T00811024  RH  047%=      5-min Rain = 0
KDO1 140425Z 35009KT 08/M02 A2994 RMK A01 T00821024  RH  047%=      5-min Rain = 0
KDO1 140426Z 35010KT 08/M02 A2994 RMK A01 T00821024  RH  047%=      5-min Rain = 0
KDO1 140427Z 35010KT 08/M02 A2994 RMK A01 T00821024  RH  047%=      5-min Rain = 0
KDO1 140428Z 35010KT 08/M02 A2994 RMK A01 T00821024  RH  047%=      5-min Rain = 0
KDO1 140429Z 35009KT 08/M02 A2994 RMK A01 T00811024  RH  047%=      5-min Rain = 0
KDO1 140430Z 35010KT 08/M02 A2995 RMK A01 T00821023  RH  047%=      5-min Rain = 0
KDO1 140431Z 35011KT 08/M02 A2995 RMK A01 T00811023  RH  048%=      5-min Rain = 0
KDO1 140432Z 35011KT 08/M02 A2995 RMK A01 T00811023  RH  048%=      5-min Rain = 0
KDO1 140433Z 36011KT 08/M02 A2995 RMK A01 T00801023  RH  048%=      5-min Rain = 0
KDO1 140434Z 35010KT 08/M02 A2995 RMK A01 T00801023  RH  048%=      5-min Rain = 0
KDO1 140435Z 35011KT 08/M02 A2995 RMK A01 T00791023  RH  048%=      5-min Rain = 0
KDO1 140436Z 35010KT 08/M02 A2995 RMK A01 T00791022  RH  049%=      5-min Rain = 0
KDO1 140437Z 35010KT 08/M02 A2995 RMK A01 T00791023  RH  049%=      5-min Rain = 0
KDO1 140438Z 35011KT 08/M02 A2995 RMK A01 T00791022  RH  049%=      5-min Rain = 0
KDO1 140439Z 34010KT 08/M02 A2995 RMK A01 T00801023  RH  048%=      5-min Rain = 0
KDO1 140440Z 35009KT 08/M02 A2995 RMK A01 T00811022  RH  048%=      5-min Rain = 0
KDO1 140441Z 35008KT 08/M02 A2995 RMK A01 T00811022  RH  048%=      5-min Rain = 0
KDO1 140442Z 35010KT 08/M02 A2995 RMK A01 T00811022  RH  048%=      5-min Rain = 0
KDO1 140443Z 35008KT 08/M02 A2995 RMK A01 T00821022  RH  048%=      5-min Rain = 0
KDO1 140444Z 35009KT 08/M02 A2995 RMK A01 T00821022  RH  048%=      5-min Rain = 0
KDO1 140445Z 35009KT 08/M02 A2995 RMK A01 T00821022  RH  048%=      5-min Rain = 0
KDO1 140446Z 35010KT 08/M02 A2995 RMK A01 T00821022  RH  048%=      5-min Rain = 0
KDO1 140447Z 35010KT 08/M02 A2995 RMK A01 T00821022  RH  048%=      5-min Rain = 0
KDO1 140448Z 35010KT 08/M02 A2995 RMK A01 T00831021  RH  048%=      5-min Rain = 0
KDO1 140449Z 35009KT 08/M02 A2995 RMK A01 T00831021  RH  048%=      5-min Rain = 0
KDO1 140450Z 35010KT 08/M02 A2995 RMK A01 T00821021  RH  048%=      5-min Rain = 0
KDO1 140451Z 00010KT 08/M02 A2995 RMK A01 T00821021  RH  048%=      5-min Rain = 0
KDO1 140452Z 36011KT 08/M02 A2995 RMK A01 T00831021  RH  048%=      5-min Rain = 0
KDO1 140453Z 36010KT 08/M02 A2995 RMK A01 T00821021  RH  048%=      5-min Rain = 0
KDO1 140454Z 36009KT 08/M02 A2995 RMK A01 T00831020  RH  048%=      5-min Rain = 0
KDO1 140455Z 36009KT 08/M02 A2995 RMK A01 T00821021  RH  048%=      5-min Rain = 0
KDO1 140456Z 36009KT 08/M02 A2995 RMK A01 T00821020  RH  048%=      5-min Rain = 0
KDO1 140457Z 35009KT 08/M02 A2995 RMK A01 T00821020  RH  049%=      5-min Rain = 0
KDO1 140458Z 35008KT 08/M02 A2995 RMK A01 T00821020  RH  049%=      5-min Rain = 0
KDO1 140459Z 35009KT 08/M02 A2995 RMK A01 T00811020  RH  049%=      5-min Rain = 0
KDO1 140500Z 35008KT 08/M02 A2995 RMK A01 T00811020  RH  049%=      5-min Rain = 0
KDO1 140501Z 35009KT 08/M02 A2995 RMK A01 T00801020  RH  049%=      5-min Rain = 0
KDO1 140502Z 35008KT 08/M02 A2995 RMK A01 T00801020  RH  049%=      5-min Rain = 0
KDO1 140503Z 35009KT 08/M02 A2996 RMK A01 T00801020  RH  049%=      5-min Rain = 0
KDO1 140504Z 35008KT 08/M02 A2996 RMK A01 T00801019  RH  049%=      5-min Rain = 0
KDO1 140505Z 35010KT 08/M02 A2996 RMK A01 T00801019  RH  050%=      5-min Rain = 0
KDO1 140506Z 35009KT 08/M02 A2996 RMK A01 T00801019  RH  050%=      5-min Rain = 0
KDO1 140507Z 35009KT 08/M02 A2996 RMK A01 T00801019  RH  050%=      5-min Rain = 0
KDO1 140508Z 35009KT 08/M02 A2996 RMK A01 T00801019  RH  050%=      5-min Rain = 0
KDO1 140509Z 35009KT 08/M02 A2995 RMK A01 T00801019  RH  050%=      5-min Rain = 0
KDO1 140510Z 35009KT 08/M02 A2995 RMK A01 T00801019  RH  050%=      5-min Rain = 0
KDO1 140511Z 36009KT 08/M02 A2995 RMK A01 T00801018  RH  050%=      5-min Rain = 0
KDO1 140512Z 36009KT 08/M02 A2995 RMK A01 T00801019  RH  050%=      5-min Rain = 0
KDO1 140513Z 35008KT 08/M02 A2995 RMK A01 T00811018  RH  050%=      5-min Rain = 0
KDO1 140514Z 35007KT 08/M02 A2995 RMK A01 T00811018  RH  050%=      5-min Rain = 0
KDO1 140515Z 36007KT 08/M02 A2995 RMK A01 T00801018  RH  050%=      5-min Rain = 0
KDO1 140516Z 36007KT 08/M02 A2995 RMK A01 T00801018  RH  050%=      5-min Rain = 0
KDO1 140517Z 36007KT 08/M02 A2995 RMK A01 T00791018  RH  050%=      5-min Rain = 0
KDO1 140518Z 36007KT 08/M02 A2995 RMK A01 T00791017  RH  050%=      5-min Rain = 0
KDO1 140519Z 35006KT 08/M02 A2995 RMK A01 T00791017  RH  050%=      5-min Rain = 0
KDO1 140520Z 35006KT 08/M02 A2995 RMK A01 T00791017  RH  051%=      5-min Rain = 0
KDO1 140521Z 36006KT 08/M02 A2995 RMK A01 T00781018  RH  051%=      5-min Rain = 0
KDO1 140522Z 35006KT 08/M02 A2995 RMK A01 T00781017  RH  051%=      5-min Rain = 0
KDO1 140523Z 35005KT 08/M02 A2996 RMK A01 T00781017  RH  051%=      5-min Rain = 0
KDO1 140524Z 35006KT 08/M02 A2995 RMK A01 T00771017  RH  051%=      5-min Rain = 0
KDO1 140525Z 35006KT 08/M02 A2995 RMK A01 T00771017  RH  051%=      5-min Rain = 0
KDO1 140526Z 35006KT 08/M02 A2995 RMK A01 T00771017  RH  051%=      5-min Rain = 0
KDO1 140527Z 35006KT 08/M02 A2995 RMK A01 T00771017  RH  051%=      5-min Rain = 0
KDO1 140528Z 35007KT 08/M02 A2995 RMK A01 T00771017  RH  052%=      5-min Rain = 0
KDO1 140529Z 35006KT 08/M02 A2995 RMK A01 T00771016  RH  052%=      5-min Rain = 0
KDO1 140530Z 35007KT 08/M02 A2995 RMK A01 T00771016  RH  052%=      5-min Rain = 0
KDO1 140531Z 34007KT 08/M02 A2995 RMK A01 T00771016  RH  052%=      5-min Rain = 0
KDO1 140532Z 34007KT 08/M02 A2995 RMK A01 T00771016  RH  052%=      5-min Rain = 0
KDO1 140533Z 34007KT 08/M02 A2995 RMK A01 T00771016  RH  052%=      5-min Rain = 0
KDO1 140534Z 34007KT 08/M02 A2995 RMK A01 T00781016  RH  051%=      5-min Rain = 0
KDO1 140535Z 34007KT 08/M02 A2995 RMK A01 T00781016  RH  051%=      5-min Rain = 0
KDO1 140536Z 35007KT 08/M02 A2995 RMK A01 T00781016  RH  051%=      5-min Rain = 0
KDO1 140537Z 35008KT 08/M02 A2995 RMK A01 T00781016  RH  051%=      5-min Rain = 0
KDO1 140538Z 35008KT 08/M02 A2994 RMK A01 T00781016  RH  051%=      5-min Rain = 0
KDO1 140539Z 35008KT 08/M02 A2994 RMK A01 T00781016  RH  052%=      5-min Rain = 0
KDO1 140540Z 35008KT 08/M02 A2994 RMK A01 T00781016  RH  051%=      5-min Rain = 0
KDO1 140541Z 35008KT 08/M02 A2994 RMK A01 T00781016  RH  051%=      5-min Rain = 0
KDO1 140542Z 35008KT 08/M02 A2994 RMK A01 T00781016  RH  051%=      5-min Rain = 0
KDO1 140543Z 35008KT 08/M02 A2994 RMK A01 T00781016  RH  052%=      5-min Rain = 0
KDO1 140544Z 35007KT 08/M02 A2994 RMK A01 T00771016  RH  052%=      5-min Rain = 0
KDO1 140545Z 35008KT 08/M02 A2994 RMK A01 T00781016  RH  052%=      5-min Rain = 0
KDO1 140546Z 34007KT 08/M02 A2994 RMK A01 T00771016  RH  052%=      5-min Rain = 0
KDO1 140547Z 35007KT 08/M02 A2995 RMK A01 T00771016  RH  052%=      5-min Rain = 0
KDO1 140548Z 34007KT 08/M02 A2995 RMK A01 T00771016  RH  052%=      5-min Rain = 0
KDO1 140549Z 34007KT 08/M02 A2995 RMK A01 T00781015  RH  052%=      5-min Rain = 0
KDO1 140550Z 35007KT 08/M02 A2994 RMK A01 T00781016  RH  052%=      5-min Rain = 0
KDO1 140551Z 35006KT 08/M02 A2994 RMK A01 T00781016  RH  052%=      5-min Rain = 0
KDO1 140552Z 35006KT 08/M02 A2995 RMK A01 T00781016  RH  051%=      5-min Rain = 0
KDO1 140553Z 35006KT 08/M02 A2995 RMK A01 T00791016  RH  051%=      5-min Rain = 0
KDO1 140554Z 35007KT 08/M02 A2995 RMK A01 T00791015  RH  051%=      5-min Rain = 0
KDO1 140555Z 35007KT 08/M02 A2995 RMK A01 T00791015  RH  051%=      5-min Rain = 0
KDO1 140556Z 35007KT 08/M02 A2995 RMK A01 T00791016  RH  051%=      5-min Rain = 0
KDO1 140557Z 35006KT 08/M02 A2995 RMK A01 T00791016  RH  051%=      5-min Rain = 0
KDO1 140558Z 35007KT 08/M02 A2995 RMK A01 T00791016  RH  051%=      5-min Rain = 0
KDO1 140559Z 35007KT 08/M02 A2994 RMK A01 T00791016  RH  051%=      5-min Rain = 0

Page generated in 0.1791 seconds.